<?xml version="1.0" encoding="UTF-8" standalone="no" ?>
<gpx xmlns="http://www.topografix.com/GPX/1/1" xmlns:xsi="http://www.w3.org/2001/XMLSchema-instance" xsi:schemaLocation="http://www.topografix.com/GPX/1/1 http://www.topografix.com/GPX/1/1/gpx.xsd" version="1.1" creator="VisuGPX - https://www.visugpx.com">
  <metadata>
    <name>Alpilles tour optimisé</name>
    <desc><![CDATA[Tour du massif de la Caume]]></desc>
  </metadata>
  <trk>
    <name><![CDATA[alpilles 2016-09-25 09:42]]></name>
    <trkseg>
      <trkpt lat="43.7765" lon="4.83312">
        <ele>101.55</ele>
        <time>2016-09-25T07:46:10Z</time>
      </trkpt>
      <trkpt lat="43.7764" lon="4.83334">
        <ele>108.36</ele>
        <time>2016-09-25T07:47:40Z</time>
      </trkpt>
      <trkpt lat="43.7764" lon="4.8336">
        <ele>106.1</ele>
        <time>2016-09-25T07:47:47Z</time>
      </trkpt>
      <trkpt lat="43.7764" lon="4.83387">
        <ele>105.75</ele>
        <time>2016-09-25T07:47:54Z</time>
      </trkpt>
      <trkpt lat="43.7763" lon="4.83415">
        <ele>107.38</ele>
        <time>2016-09-25T07:48:01Z</time>
      </trkpt>
      <trkpt lat="43.7761" lon="4.83418">
        <ele>107.75</ele>
        <time>2016-09-25T07:48:09Z</time>
      </trkpt>
      <trkpt lat="43.776" lon="4.83404">
        <ele>107.54</ele>
        <time>2016-09-25T07:48:16Z</time>
      </trkpt>
      <trkpt lat="43.7758" lon="4.83386">
        <ele>107.39</ele>
        <time>2016-09-25T07:48:24Z</time>
      </trkpt>
      <trkpt lat="43.7756" lon="4.83372">
        <ele>107.7</ele>
        <time>2016-09-25T07:48:30Z</time>
      </trkpt>
      <trkpt lat="43.7755" lon="4.83363">
        <ele>108.52</ele>
        <time>2016-09-25T07:48:35Z</time>
      </trkpt>
      <trkpt lat="43.7753" lon="4.83379">
        <ele>109.19</ele>
        <time>2016-09-25T07:48:42Z</time>
      </trkpt>
      <trkpt lat="43.7751" lon="4.83393">
        <ele>107.78</ele>
        <time>2016-09-25T07:48:50Z</time>
      </trkpt>
      <trkpt lat="43.775" lon="4.83401">
        <ele>111.55</ele>
        <time>2016-09-25T07:48:59Z</time>
      </trkpt>
      <trkpt lat="43.7748" lon="4.83413">
        <ele>116.55</ele>
        <time>2016-09-25T07:49:14Z</time>
      </trkpt>
      <trkpt lat="43.7746" lon="4.83425">
        <ele>119.5</ele>
        <time>2016-09-25T07:49:31Z</time>
      </trkpt>
      <trkpt lat="43.7744" lon="4.8343">
        <ele>124.36</ele>
        <time>2016-09-25T07:49:49Z</time>
      </trkpt>
      <trkpt lat="43.7743" lon="4.83448">
        <ele>133.59</ele>
        <time>2016-09-25T07:50:14Z</time>
      </trkpt>
      <trkpt lat="43.7742" lon="4.83423">
        <ele>128.55</ele>
        <time>2016-09-25T07:50:27Z</time>
      </trkpt>
      <trkpt lat="43.774" lon="4.83418">
        <ele>126.74</ele>
        <time>2016-09-25T07:50:40Z</time>
      </trkpt>
      <trkpt lat="43.7739" lon="4.83415">
        <ele>125.6</ele>
        <time>2016-09-25T07:50:47Z</time>
      </trkpt>
      <trkpt lat="43.7736" lon="4.83403">
        <ele>123.56</ele>
        <time>2016-09-25T07:50:51Z</time>
      </trkpt>
      <trkpt lat="43.7735" lon="4.83385">
        <ele>121.56</ele>
        <time>2016-09-25T07:50:59Z</time>
      </trkpt>
      <trkpt lat="43.7733" lon="4.83398">
        <ele>121.36</ele>
        <time>2016-09-25T07:51:11Z</time>
      </trkpt>
      <trkpt lat="43.7732" lon="4.83412">
        <ele>127.15</ele>
        <time>2016-09-25T07:51:41Z</time>
      </trkpt>
      <trkpt lat="43.773" lon="4.83427">
        <ele>123.72</ele>
        <time>2016-09-25T07:51:50Z</time>
      </trkpt>
      <trkpt lat="43.7729" lon="4.83444">
        <ele>121.56</ele>
        <time>2016-09-25T07:52:01Z</time>
      </trkpt>
      <trkpt lat="43.7727" lon="4.83455">
        <ele>122.7</ele>
        <time>2016-09-25T07:52:08Z</time>
      </trkpt>
      <trkpt lat="43.7725" lon="4.83462">
        <ele>121.55</ele>
        <time>2016-09-25T07:52:15Z</time>
      </trkpt>
      <trkpt lat="43.7724" lon="4.83482">
        <ele>125.54</ele>
        <time>2016-09-25T07:52:23Z</time>
      </trkpt>
      <trkpt lat="43.7722" lon="4.83488">
        <ele>121.59</ele>
        <time>2016-09-25T07:52:31Z</time>
      </trkpt>
      <trkpt lat="43.772" lon="4.83492">
        <ele>126.14</ele>
        <time>2016-09-25T07:52:38Z</time>
      </trkpt>
      <trkpt lat="43.7719" lon="4.83506">
        <ele>127.35</ele>
        <time>2016-09-25T07:52:47Z</time>
      </trkpt>
      <trkpt lat="43.7717" lon="4.83519">
        <ele>130.53</ele>
        <time>2016-09-25T07:52:56Z</time>
      </trkpt>
      <trkpt lat="43.7715" lon="4.83537">
        <ele>135.7</ele>
        <time>2016-09-25T07:53:06Z</time>
      </trkpt>
      <trkpt lat="43.7714" lon="4.83555">
        <ele>133.54</ele>
        <time>2016-09-25T07:53:16Z</time>
      </trkpt>
      <trkpt lat="43.7712" lon="4.83575">
        <ele>134.75</ele>
        <time>2016-09-25T07:53:26Z</time>
      </trkpt>
      <trkpt lat="43.7711" lon="4.8359">
        <ele>135.63</ele>
        <time>2016-09-25T07:53:35Z</time>
      </trkpt>
      <trkpt lat="43.7709" lon="4.83604">
        <ele>128.55</ele>
        <time>2016-09-25T07:53:45Z</time>
      </trkpt>
      <trkpt lat="43.7708" lon="4.83622">
        <ele>130.14</ele>
        <time>2016-09-25T07:53:55Z</time>
      </trkpt>
      <trkpt lat="43.7706" lon="4.83635">
        <ele>134.72</ele>
        <time>2016-09-25T07:54:05Z</time>
      </trkpt>
      <trkpt lat="43.7705" lon="4.83652">
        <ele>136.5</ele>
        <time>2016-09-25T07:54:15Z</time>
      </trkpt>
      <trkpt lat="43.7705" lon="4.83682">
        <ele>142.34</ele>
        <time>2016-09-25T07:54:24Z</time>
      </trkpt>
      <trkpt lat="43.7704" lon="4.837">
        <ele>143.55</ele>
        <time>2016-09-25T07:54:34Z</time>
      </trkpt>
      <trkpt lat="43.7703" lon="4.83725">
        <ele>144.58</ele>
        <time>2016-09-25T07:54:46Z</time>
      </trkpt>
      <trkpt lat="43.7703" lon="4.83751">
        <ele>146.31</ele>
        <time>2016-09-25T07:54:54Z</time>
      </trkpt>
      <trkpt lat="43.7702" lon="4.83774">
        <ele>145.39</ele>
        <time>2016-09-25T07:55:05Z</time>
      </trkpt>
      <trkpt lat="43.7701" lon="4.83797">
        <ele>140.76</ele>
        <time>2016-09-25T07:55:19Z</time>
      </trkpt>
      <trkpt lat="43.7699" lon="4.83798">
        <ele>141.54</ele>
        <time>2016-09-25T07:55:31Z</time>
      </trkpt>
      <trkpt lat="43.7699" lon="4.83823">
        <ele>140.57</ele>
        <time>2016-09-25T07:55:40Z</time>
      </trkpt>
      <trkpt lat="43.7697" lon="4.83821">
        <ele>141.06</ele>
        <time>2016-09-25T07:55:52Z</time>
      </trkpt>
      <trkpt lat="43.7695" lon="4.83832">
        <ele>144.55</ele>
        <time>2016-09-25T07:56:08Z</time>
      </trkpt>
      <trkpt lat="43.7694" lon="4.83854">
        <ele>145.34</ele>
        <time>2016-09-25T07:56:24Z</time>
      </trkpt>
      <trkpt lat="43.7692" lon="4.8386">
        <ele>153.85</ele>
        <time>2016-09-25T07:56:37Z</time>
      </trkpt>
      <trkpt lat="43.769" lon="4.83868">
        <ele>160.53</ele>
        <time>2016-09-25T07:56:48Z</time>
      </trkpt>
      <trkpt lat="43.7688" lon="4.83882">
        <ele>161.8</ele>
        <time>2016-09-25T07:57:00Z</time>
      </trkpt>
      <trkpt lat="43.7686" lon="4.8389">
        <ele>160.75</ele>
        <time>2016-09-25T07:57:13Z</time>
      </trkpt>
      <trkpt lat="43.7684" lon="4.83899">
        <ele>162.35</ele>
        <time>2016-09-25T07:57:26Z</time>
      </trkpt>
      <trkpt lat="43.7683" lon="4.83914">
        <ele>164.35</ele>
        <time>2016-09-25T07:57:37Z</time>
      </trkpt>
      <trkpt lat="43.7682" lon="4.8393">
        <ele>167.5</ele>
        <time>2016-09-25T07:57:47Z</time>
      </trkpt>
      <trkpt lat="43.768" lon="4.83946">
        <ele>177.35</ele>
        <time>2016-09-25T07:58:00Z</time>
      </trkpt>
      <trkpt lat="43.7678" lon="4.83958">
        <ele>180.3</ele>
        <time>2016-09-25T07:58:11Z</time>
      </trkpt>
      <trkpt lat="43.7677" lon="4.83967">
        <ele>176.8</ele>
        <time>2016-09-25T07:58:23Z</time>
      </trkpt>
      <trkpt lat="43.7675" lon="4.83976">
        <ele>175.95</ele>
        <time>2016-09-25T07:58:33Z</time>
      </trkpt>
      <trkpt lat="43.7673" lon="4.83987">
        <ele>179.55</ele>
        <time>2016-09-25T07:58:44Z</time>
      </trkpt>
      <trkpt lat="43.7672" lon="4.83999">
        <ele>175.79</ele>
        <time>2016-09-25T07:58:56Z</time>
      </trkpt>
      <trkpt lat="43.767" lon="4.8401">
        <ele>176.51</ele>
        <time>2016-09-25T07:59:06Z</time>
      </trkpt>
      <trkpt lat="43.7668" lon="4.84013">
        <ele>175.35</ele>
        <time>2016-09-25T07:59:16Z</time>
      </trkpt>
      <trkpt lat="43.7666" lon="4.84016">
        <ele>173.8</ele>
        <time>2016-09-25T07:59:29Z</time>
      </trkpt>
      <trkpt lat="43.7664" lon="4.84007">
        <ele>175.91</ele>
        <time>2016-09-25T07:59:39Z</time>
      </trkpt>
      <trkpt lat="43.7662" lon="4.84007">
        <ele>177.36</ele>
        <time>2016-09-25T07:59:49Z</time>
      </trkpt>
      <trkpt lat="43.7661" lon="4.83995">
        <ele>178.2</ele>
        <time>2016-09-25T08:00:03Z</time>
      </trkpt>
      <trkpt lat="43.7659" lon="4.83996">
        <ele>179.7</ele>
        <time>2016-09-25T08:00:13Z</time>
      </trkpt>
      <trkpt lat="43.7657" lon="4.83988">
        <ele>182.76</ele>
        <time>2016-09-25T08:00:29Z</time>
      </trkpt>
      <trkpt lat="43.7655" lon="4.83986">
        <ele>187.46</ele>
        <time>2016-09-25T08:00:40Z</time>
      </trkpt>
      <trkpt lat="43.7653" lon="4.83982">
        <ele>188.28</ele>
        <time>2016-09-25T08:00:55Z</time>
      </trkpt>
      <trkpt lat="43.7652" lon="4.83974">
        <ele>188.63</ele>
        <time>2016-09-25T08:01:10Z</time>
      </trkpt>
      <trkpt lat="43.765" lon="4.83962">
        <ele>189.75</ele>
        <time>2016-09-25T08:01:24Z</time>
      </trkpt>
      <trkpt lat="43.7648" lon="4.83954">
        <ele>187.59</ele>
        <time>2016-09-25T08:01:36Z</time>
      </trkpt>
      <trkpt lat="43.7646" lon="4.83954">
        <ele>193.8</ele>
        <time>2016-09-25T08:01:52Z</time>
      </trkpt>
      <trkpt lat="43.7644" lon="4.83955">
        <ele>197.34</ele>
        <time>2016-09-25T08:02:06Z</time>
      </trkpt>
      <trkpt lat="43.7642" lon="4.83955">
        <ele>202.59</ele>
        <time>2016-09-25T08:02:24Z</time>
      </trkpt>
      <trkpt lat="43.764" lon="4.83954">
        <ele>202.56</ele>
        <time>2016-09-25T08:02:43Z</time>
      </trkpt>
      <trkpt lat="43.7639" lon="4.83951">
        <ele>204.58</ele>
        <time>2016-09-25T08:02:58Z</time>
      </trkpt>
      <trkpt lat="43.7637" lon="4.83955">
        <ele>202.54</ele>
        <time>2016-09-25T08:03:15Z</time>
      </trkpt>
      <trkpt lat="43.7635" lon="4.83957">
        <ele>204.82</ele>
        <time>2016-09-25T08:03:27Z</time>
      </trkpt>
      <trkpt lat="43.7633" lon="4.8397">
        <ele>210.95</ele>
        <time>2016-09-25T08:03:39Z</time>
      </trkpt>
      <trkpt lat="43.7632" lon="4.83992">
        <ele>212.34</ele>
        <time>2016-09-25T08:03:58Z</time>
      </trkpt>
      <trkpt lat="43.7631" lon="4.83999">
        <ele>212.75</ele>
        <time>2016-09-25T08:04:13Z</time>
      </trkpt>
      <trkpt lat="43.7629" lon="4.8401">
        <ele>212.67</ele>
        <time>2016-09-25T08:04:38Z</time>
      </trkpt>
      <trkpt lat="43.7627" lon="4.84012">
        <ele>212.55</ele>
        <time>2016-09-25T08:04:55Z</time>
      </trkpt>
      <trkpt lat="43.7626" lon="4.84032">
        <ele>217.75</ele>
        <time>2016-09-25T08:05:13Z</time>
      </trkpt>
      <trkpt lat="43.7626" lon="4.84058">
        <ele>225.98</ele>
        <time>2016-09-25T08:05:28Z</time>
      </trkpt>
      <trkpt lat="43.7626" lon="4.84083">
        <ele>229.67</ele>
        <time>2016-09-25T08:07:19Z</time>
      </trkpt>
      <trkpt lat="43.7627" lon="4.84108">
        <ele>228.66</ele>
        <time>2016-09-25T08:07:34Z</time>
      </trkpt>
      <trkpt lat="43.7625" lon="4.84115">
        <ele>231.68</ele>
        <time>2016-09-25T08:07:52Z</time>
      </trkpt>
      <trkpt lat="43.7623" lon="4.84127">
        <ele>232.51</ele>
        <time>2016-09-25T08:08:24Z</time>
      </trkpt>
      <trkpt lat="43.7622" lon="4.84145">
        <ele>227.14</ele>
        <time>2016-09-25T08:08:48Z</time>
      </trkpt>
      <trkpt lat="43.7621" lon="4.84121">
        <ele>224.36</ele>
        <time>2016-09-25T08:09:07Z</time>
      </trkpt>
      <trkpt lat="43.762" lon="4.84097">
        <ele>227.18</ele>
        <time>2016-09-25T08:09:23Z</time>
      </trkpt>
      <trkpt lat="43.762" lon="4.84073">
        <ele>236.3</ele>
        <time>2016-09-25T08:09:35Z</time>
      </trkpt>
      <trkpt lat="43.7619" lon="4.84049">
        <ele>245.7</ele>
        <time>2016-09-25T08:10:29Z</time>
      </trkpt>
      <trkpt lat="43.7618" lon="4.84025">
        <ele>251.34</ele>
        <time>2016-09-25T08:10:39Z</time>
      </trkpt>
      <trkpt lat="43.7617" lon="4.84001">
        <ele>258.5</ele>
        <time>2016-09-25T08:10:53Z</time>
      </trkpt>
      <trkpt lat="43.7616" lon="4.8398">
        <ele>258.61</ele>
        <time>2016-09-25T08:11:09Z</time>
      </trkpt>
      <trkpt lat="43.7615" lon="4.83958">
        <ele>262.9</ele>
        <time>2016-09-25T08:11:22Z</time>
      </trkpt>
      <trkpt lat="43.7616" lon="4.83933">
        <ele>265.34</ele>
        <time>2016-09-25T08:11:37Z</time>
      </trkpt>
      <trkpt lat="43.76146" lon="4.83925">
        <ele>278.5</ele>
      </trkpt>
      <trkpt lat="43.76132" lon="4.83939">
        <ele>279.4</ele>
      </trkpt>
      <trkpt lat="43.76119" lon="4.8396">
        <ele>281.9</ele>
      </trkpt>
      <trkpt lat="43.76111" lon="4.83975">
        <ele>284.4</ele>
      </trkpt>
      <trkpt lat="43.76103" lon="4.83995">
        <ele>288.5</ele>
      </trkpt>
      <trkpt lat="43.76097" lon="4.84012">
        <ele>291.8</ele>
      </trkpt>
      <trkpt lat="43.76092" lon="4.84038">
        <ele>296.4</ele>
      </trkpt>
      <trkpt lat="43.76087" lon="4.84067">
        <ele>301.6</ele>
      </trkpt>
      <trkpt lat="43.76084" lon="4.8409">
        <ele>305.8</ele>
      </trkpt>
      <trkpt lat="43.76082" lon="4.84107">
        <ele>307.8</ele>
      </trkpt>
      <trkpt lat="43.76078" lon="4.84128">
        <ele>310</ele>
      </trkpt>
      <trkpt lat="43.76078" lon="4.84143">
        <ele>312</ele>
      </trkpt>
      <trkpt lat="43.7608" lon="4.84155">
        <ele>313.8</ele>
      </trkpt>
      <trkpt lat="43.76076" lon="4.84166">
        <ele>314.6</ele>
      </trkpt>
      <trkpt lat="43.76072" lon="4.84188">
        <ele>316.3</ele>
      </trkpt>
      <trkpt lat="43.7607" lon="4.84213">
        <ele>318.7</ele>
      </trkpt>
      <trkpt lat="43.76079" lon="4.84237">
        <ele>324</ele>
      </trkpt>
      <trkpt lat="43.76133" lon="4.84286">
        <ele>322.7</ele>
      </trkpt>
      <trkpt lat="43.76129" lon="4.843">
        <ele>323.1</ele>
      </trkpt>
      <trkpt lat="43.76107" lon="4.843">
        <ele>325.6</ele>
      </trkpt>
      <trkpt lat="43.76094" lon="4.84305">
        <ele>327</ele>
      </trkpt>
      <trkpt lat="43.76079" lon="4.84307">
        <ele>327.4</ele>
      </trkpt>
      <trkpt lat="43.76066" lon="4.84322">
        <ele>325.4</ele>
      </trkpt>
      <trkpt lat="43.76045" lon="4.84333">
        <ele>322.5</ele>
      </trkpt>
      <trkpt lat="43.76033" lon="4.84344">
        <ele>318.9</ele>
      </trkpt>
      <trkpt lat="43.75993" lon="4.84363">
        <ele>312</ele>
      </trkpt>
      <trkpt lat="43.75978" lon="4.84375">
        <ele>308.8</ele>
      </trkpt>
      <trkpt lat="43.75963" lon="4.84409">
        <ele>306.5</ele>
      </trkpt>
      <trkpt lat="43.75958" lon="4.84433">
        <ele>303</ele>
      </trkpt>
      <trkpt lat="43.75958" lon="4.84465">
        <ele>297.2</ele>
      </trkpt>
      <trkpt lat="43.7596" lon="4.84484">
        <ele>293.9</ele>
      </trkpt>
      <trkpt lat="43.75961" lon="4.84508">
        <ele>290.1</ele>
      </trkpt>
      <trkpt lat="43.75957" lon="4.84541">
        <ele>286.9</ele>
      </trkpt>
      <trkpt lat="43.75961" lon="4.84579">
        <ele>282.8</ele>
      </trkpt>
      <trkpt lat="43.75963" lon="4.8461">
        <ele>280.4</ele>
      </trkpt>
      <trkpt lat="43.75964" lon="4.84623">
        <ele>279.3</ele>
      </trkpt>
      <trkpt lat="43.75957" lon="4.84646">
        <ele>278.6</ele>
      </trkpt>
      <trkpt lat="43.75954" lon="4.84657">
        <ele>278.4</ele>
      </trkpt>
      <trkpt lat="43.7595" lon="4.8466">
        <ele>278.9</ele>
      </trkpt>
      <trkpt lat="43.75943" lon="4.84655">
        <ele>280.3</ele>
      </trkpt>
      <trkpt lat="43.7594" lon="4.84633">
        <ele>290.56</ele>
        <time>2016-09-25T08:17:20Z</time>
      </trkpt>
      <trkpt lat="43.7594" lon="4.84606">
        <ele>289.56</ele>
        <time>2016-09-25T08:17:29Z</time>
      </trkpt>
      <trkpt lat="43.7594" lon="4.84579">
        <ele>285.78</ele>
        <time>2016-09-25T08:17:36Z</time>
      </trkpt>
      <trkpt lat="43.7593" lon="4.84554">
        <ele>287.55</ele>
        <time>2016-09-25T08:17:43Z</time>
      </trkpt>
      <trkpt lat="43.75916" lon="4.84543">
        <ele>288.2</ele>
      </trkpt>
      <trkpt lat="43.75907" lon="4.84518">
        <ele>289</ele>
      </trkpt>
      <trkpt lat="43.759" lon="4.84489">
        <ele>290.61</ele>
        <time>2016-09-25T08:18:02Z</time>
      </trkpt>
      <trkpt lat="43.7589" lon="4.84465">
        <ele>291.42</ele>
        <time>2016-09-25T08:18:08Z</time>
      </trkpt>
      <trkpt lat="43.7589" lon="4.8444">
        <ele>293.9</ele>
        <time>2016-09-25T08:18:16Z</time>
      </trkpt>
      <trkpt lat="43.7588" lon="4.84413">
        <ele>294.58</ele>
        <time>2016-09-25T08:18:23Z</time>
      </trkpt>
      <trkpt lat="43.7588" lon="4.84386">
        <ele>295.35</ele>
        <time>2016-09-25T08:18:31Z</time>
      </trkpt>
      <trkpt lat="43.7587" lon="4.84413">
        <ele>294.56</ele>
        <time>2016-09-25T08:18:50Z</time>
      </trkpt>
      <trkpt lat="43.7588" lon="4.84439">
        <ele>294.55</ele>
        <time>2016-09-25T08:18:57Z</time>
      </trkpt>
      <trkpt lat="43.7588" lon="4.84467">
        <ele>292.56</ele>
        <time>2016-09-25T08:19:03Z</time>
      </trkpt>
      <trkpt lat="43.7588" lon="4.84497">
        <ele>291.75</ele>
        <time>2016-09-25T08:19:09Z</time>
      </trkpt>
      <trkpt lat="43.7588" lon="4.84523">
        <ele>291.38</ele>
        <time>2016-09-25T08:19:14Z</time>
      </trkpt>
      <trkpt lat="43.7589" lon="4.84548">
        <ele>288.63</ele>
        <time>2016-09-25T08:19:20Z</time>
      </trkpt>
      <trkpt lat="43.759" lon="4.8457">
        <ele>287.35</ele>
        <time>2016-09-25T08:19:25Z</time>
      </trkpt>
      <trkpt lat="43.7589" lon="4.84597">
        <ele>282.08</ele>
        <time>2016-09-25T08:19:30Z</time>
      </trkpt>
      <trkpt lat="43.7588" lon="4.84621">
        <ele>280.55</ele>
        <time>2016-09-25T08:19:35Z</time>
      </trkpt>
      <trkpt lat="43.7586" lon="4.84634">
        <ele>277.61</ele>
        <time>2016-09-25T08:19:39Z</time>
      </trkpt>
      <trkpt lat="43.7585" lon="4.84644">
        <ele>279.15</ele>
        <time>2016-09-25T08:19:43Z</time>
      </trkpt>
      <trkpt lat="43.7583" lon="4.8465">
        <ele>276.6</ele>
        <time>2016-09-25T08:19:48Z</time>
      </trkpt>
      <trkpt lat="43.7581" lon="4.84654">
        <ele>275.77</ele>
        <time>2016-09-25T08:19:53Z</time>
      </trkpt>
      <trkpt lat="43.7579" lon="4.84661">
        <ele>273.75</ele>
        <time>2016-09-25T08:19:58Z</time>
      </trkpt>
      <trkpt lat="43.7577" lon="4.8467">
        <ele>269.76</ele>
        <time>2016-09-25T08:20:03Z</time>
      </trkpt>
      <trkpt lat="43.7575" lon="4.8468">
        <ele>266.76</ele>
        <time>2016-09-25T08:20:07Z</time>
      </trkpt>
      <trkpt lat="43.7573" lon="4.84693">
        <ele>262.99</ele>
        <time>2016-09-25T08:20:11Z</time>
      </trkpt>
      <trkpt lat="43.7571" lon="4.84705">
        <ele>258.75</ele>
        <time>2016-09-25T08:20:15Z</time>
      </trkpt>
      <trkpt lat="43.7569" lon="4.84719">
        <ele>257.39</ele>
        <time>2016-09-25T08:20:20Z</time>
      </trkpt>
      <trkpt lat="43.7567" lon="4.84722">
        <ele>254</ele>
        <time>2016-09-25T08:20:24Z</time>
      </trkpt>
      <trkpt lat="43.7565" lon="4.84733">
        <ele>252.43</ele>
        <time>2016-09-25T08:20:28Z</time>
      </trkpt>
      <trkpt lat="43.7563" lon="4.84742">
        <ele>253.51</ele>
        <time>2016-09-25T08:20:32Z</time>
      </trkpt>
      <trkpt lat="43.7562" lon="4.84763">
        <ele>253.36</ele>
        <time>2016-09-25T08:20:35Z</time>
      </trkpt>
      <trkpt lat="43.756" lon="4.84778">
        <ele>250.73</ele>
        <time>2016-09-25T08:20:41Z</time>
      </trkpt>
      <trkpt lat="43.7559" lon="4.84804">
        <ele>248.6</ele>
        <time>2016-09-25T08:20:47Z</time>
      </trkpt>
      <trkpt lat="43.7558" lon="4.84817">
        <ele>251.38</ele>
        <time>2016-09-25T08:20:55Z</time>
      </trkpt>
      <trkpt lat="43.7556" lon="4.84832">
        <ele>249.78</ele>
        <time>2016-09-25T08:21:03Z</time>
      </trkpt>
      <trkpt lat="43.7554" lon="4.84845">
        <ele>247.75</ele>
        <time>2016-09-25T08:21:09Z</time>
      </trkpt>
      <trkpt lat="43.7553" lon="4.84863">
        <ele>247.15</ele>
        <time>2016-09-25T08:21:15Z</time>
      </trkpt>
      <trkpt lat="43.7551" lon="4.84882">
        <ele>250.49</ele>
        <time>2016-09-25T08:21:20Z</time>
      </trkpt>
      <trkpt lat="43.755" lon="4.84902">
        <ele>251.5</ele>
        <time>2016-09-25T08:21:26Z</time>
      </trkpt>
      <trkpt lat="43.7548" lon="4.84918">
        <ele>250.6</ele>
        <time>2016-09-25T08:21:32Z</time>
      </trkpt>
      <trkpt lat="43.7547" lon="4.84935">
        <ele>249.55</ele>
        <time>2016-09-25T08:21:38Z</time>
      </trkpt>
      <trkpt lat="43.7546" lon="4.84957">
        <ele>249.75</ele>
        <time>2016-09-25T08:21:44Z</time>
      </trkpt>
      <trkpt lat="43.7545" lon="4.84982">
        <ele>250.35</ele>
        <time>2016-09-25T08:21:49Z</time>
      </trkpt>
      <trkpt lat="43.7545" lon="4.8501">
        <ele>249.75</ele>
        <time>2016-09-25T08:21:54Z</time>
      </trkpt>
      <trkpt lat="43.7545" lon="4.85037">
        <ele>248.55</ele>
        <time>2016-09-25T08:21:59Z</time>
      </trkpt>
      <trkpt lat="43.7545" lon="4.85067">
        <ele>246.79</ele>
        <time>2016-09-25T08:22:04Z</time>
      </trkpt>
      <trkpt lat="43.7544" lon="4.85095">
        <ele>246.59</ele>
        <time>2016-09-25T08:22:09Z</time>
      </trkpt>
      <trkpt lat="43.7544" lon="4.85126">
        <ele>248.35</ele>
        <time>2016-09-25T08:22:14Z</time>
      </trkpt>
      <trkpt lat="43.7545" lon="4.85152">
        <ele>245.79</ele>
        <time>2016-09-25T08:22:18Z</time>
      </trkpt>
      <trkpt lat="43.7545" lon="4.85181">
        <ele>249.26</ele>
        <time>2016-09-25T08:22:22Z</time>
      </trkpt>
      <trkpt lat="43.7546" lon="4.8521">
        <ele>249.35</ele>
        <time>2016-09-25T08:22:27Z</time>
      </trkpt>
      <trkpt lat="43.7546" lon="4.85235">
        <ele>250.58</ele>
        <time>2016-09-25T08:22:31Z</time>
      </trkpt>
      <trkpt lat="43.7545" lon="4.85259">
        <ele>249.55</ele>
        <time>2016-09-25T08:22:35Z</time>
      </trkpt>
      <trkpt lat="43.7545" lon="4.85288">
        <ele>252.34</ele>
        <time>2016-09-25T08:22:40Z</time>
      </trkpt>
      <trkpt lat="43.7545" lon="4.85315">
        <ele>253.55</ele>
        <time>2016-09-25T08:22:47Z</time>
      </trkpt>
      <trkpt lat="43.7545" lon="4.8534">
        <ele>253.52</ele>
        <time>2016-09-25T08:22:54Z</time>
      </trkpt>
      <trkpt lat="43.7545" lon="4.85366">
        <ele>251.39</ele>
        <time>2016-09-25T08:23:05Z</time>
      </trkpt>
      <trkpt lat="43.7545" lon="4.8539">
        <ele>252.78</ele>
        <time>2016-09-25T08:23:18Z</time>
      </trkpt>
      <trkpt lat="43.7543" lon="4.85394">
        <ele>253.69</ele>
        <time>2016-09-25T08:23:30Z</time>
      </trkpt>
      <trkpt lat="43.7541" lon="4.85406">
        <ele>250.58</ele>
        <time>2016-09-25T08:23:44Z</time>
      </trkpt>
      <trkpt lat="43.754" lon="4.85427">
        <ele>257.35</ele>
        <time>2016-09-25T08:23:55Z</time>
      </trkpt>
      <trkpt lat="43.754" lon="4.85453">
        <ele>262.34</ele>
        <time>2016-09-25T08:24:08Z</time>
      </trkpt>
      <trkpt lat="43.7542" lon="4.85471">
        <ele>260.78</ele>
        <time>2016-09-25T08:24:15Z</time>
      </trkpt>
      <trkpt lat="43.7544" lon="4.85473">
        <ele>259.55</ele>
        <time>2016-09-25T08:24:20Z</time>
      </trkpt>
      <trkpt lat="43.7546" lon="4.85474">
        <ele>258.75</ele>
        <time>2016-09-25T08:24:25Z</time>
      </trkpt>
      <trkpt lat="43.7547" lon="4.8546">
        <ele>257.75</ele>
        <time>2016-09-25T08:24:29Z</time>
      </trkpt>
      <trkpt lat="43.7549" lon="4.85448">
        <ele>256.59</ele>
        <time>2016-09-25T08:24:32Z</time>
      </trkpt>
      <trkpt lat="43.7551" lon="4.85442">
        <ele>255.75</ele>
        <time>2016-09-25T08:24:35Z</time>
      </trkpt>
      <trkpt lat="43.7553" lon="4.85444">
        <ele>256.51</ele>
        <time>2016-09-25T08:24:40Z</time>
      </trkpt>
      <trkpt lat="43.7553" lon="4.85468">
        <ele>255.78</ele>
        <time>2016-09-25T08:24:44Z</time>
      </trkpt>
      <trkpt lat="43.7553" lon="4.85496">
        <ele>254.75</ele>
        <time>2016-09-25T08:24:50Z</time>
      </trkpt>
      <trkpt lat="43.7554" lon="4.85521">
        <ele>254.54</ele>
        <time>2016-09-25T08:24:56Z</time>
      </trkpt>
      <trkpt lat="43.7552" lon="4.85529">
        <ele>252.76</ele>
        <time>2016-09-25T08:25:06Z</time>
      </trkpt>
      <trkpt lat="43.755" lon="4.85544">
        <ele>252.75</ele>
        <time>2016-09-25T08:25:14Z</time>
      </trkpt>
      <trkpt lat="43.7549" lon="4.85561">
        <ele>253.29</ele>
        <time>2016-09-25T08:25:23Z</time>
      </trkpt>
      <trkpt lat="43.7549" lon="4.85587">
        <ele>257.74</ele>
        <time>2016-09-25T08:25:35Z</time>
      </trkpt>
      <trkpt lat="43.755" lon="4.8561">
        <ele>260.52</ele>
        <time>2016-09-25T08:25:49Z</time>
      </trkpt>
      <trkpt lat="43.7551" lon="4.85635">
        <ele>259.71</ele>
        <time>2016-09-25T08:26:06Z</time>
      </trkpt>
      <trkpt lat="43.7551" lon="4.85661">
        <ele>258.92</ele>
        <time>2016-09-25T08:26:20Z</time>
      </trkpt>
      <trkpt lat="43.7549" lon="4.85671">
        <ele>262.62</ele>
        <time>2016-09-25T08:26:36Z</time>
      </trkpt>
      <trkpt lat="43.7547" lon="4.85651">
        <ele>266.3</ele>
        <time>2016-09-25T08:26:53Z</time>
      </trkpt>
      <trkpt lat="43.7546" lon="4.85636">
        <ele>271.54</ele>
        <time>2016-09-25T08:27:01Z</time>
      </trkpt>
      <trkpt lat="43.7546" lon="4.85661">
        <ele>269.54</ele>
        <time>2016-09-25T08:27:17Z</time>
      </trkpt>
      <trkpt lat="43.7546" lon="4.85683">
        <ele>267.51</ele>
        <time>2016-09-25T08:27:36Z</time>
      </trkpt>
      <trkpt lat="43.7547" lon="4.85703">
        <ele>267.52</ele>
        <time>2016-09-25T08:27:52Z</time>
      </trkpt>
      <trkpt lat="43.7549" lon="4.8573">
        <ele>272.31</ele>
        <time>2016-09-25T08:28:06Z</time>
      </trkpt>
      <trkpt lat="43.7549" lon="4.85756">
        <ele>277.3</ele>
        <time>2016-09-25T08:28:32Z</time>
      </trkpt>
      <trkpt lat="43.755" lon="4.85782">
        <ele>281.53</ele>
        <time>2016-09-25T08:28:49Z</time>
      </trkpt>
      <trkpt lat="43.755" lon="4.85807">
        <ele>285.31</ele>
        <time>2016-09-25T08:29:04Z</time>
      </trkpt>
      <trkpt lat="43.7551" lon="4.85831">
        <ele>286.56</ele>
        <time>2016-09-25T08:29:20Z</time>
      </trkpt>
      <trkpt lat="43.7552" lon="4.85855">
        <ele>289.39</ele>
        <time>2016-09-25T08:29:32Z</time>
      </trkpt>
      <trkpt lat="43.7553" lon="4.85871">
        <ele>291.56</ele>
        <time>2016-09-25T08:29:42Z</time>
      </trkpt>
      <trkpt lat="43.7554" lon="4.85892">
        <ele>290.6</ele>
        <time>2016-09-25T08:29:53Z</time>
      </trkpt>
      <trkpt lat="43.7556" lon="4.8591">
        <ele>290.6</ele>
        <time>2016-09-25T08:30:09Z</time>
      </trkpt>
      <trkpt lat="43.7557" lon="4.85902">
        <ele>291.52</ele>
        <time>2016-09-25T08:30:23Z</time>
      </trkpt>
      <trkpt lat="43.7558" lon="4.85925">
        <ele>291.24</ele>
        <time>2016-09-25T08:30:32Z</time>
      </trkpt>
      <trkpt lat="43.7558" lon="4.85951">
        <ele>288.96</ele>
        <time>2016-09-25T08:30:44Z</time>
      </trkpt>
      <trkpt lat="43.7557" lon="4.85975">
        <ele>292.56</ele>
        <time>2016-09-25T08:30:56Z</time>
      </trkpt>
      <trkpt lat="43.7558" lon="4.85997">
        <ele>294.35</ele>
        <time>2016-09-25T08:31:12Z</time>
      </trkpt>
      <trkpt lat="43.7559" lon="4.86021">
        <ele>297.39</ele>
        <time>2016-09-25T08:31:52Z</time>
      </trkpt>
      <trkpt lat="43.7559" lon="4.86048">
        <ele>303.38</ele>
        <time>2016-09-25T08:32:04Z</time>
      </trkpt>
      <trkpt lat="43.7559" lon="4.86072">
        <ele>300.56</ele>
        <time>2016-09-25T08:32:23Z</time>
      </trkpt>
      <trkpt lat="43.7557" lon="4.86085">
        <ele>300.58</ele>
        <time>2016-09-25T08:32:37Z</time>
      </trkpt>
      <trkpt lat="43.7555" lon="4.86091">
        <ele>301.47</ele>
        <time>2016-09-25T08:33:55Z</time>
      </trkpt>
      <trkpt lat="43.7553" lon="4.86093">
        <ele>301.32</ele>
        <time>2016-09-25T08:34:09Z</time>
      </trkpt>
      <trkpt lat="43.7552" lon="4.86078">
        <ele>301.58</ele>
        <time>2016-09-25T08:34:24Z</time>
      </trkpt>
      <trkpt lat="43.755" lon="4.86084">
        <ele>305.5</ele>
        <time>2016-09-25T08:34:37Z</time>
      </trkpt>
      <trkpt lat="43.755" lon="4.8611">
        <ele>307.55</ele>
        <time>2016-09-25T08:34:51Z</time>
      </trkpt>
      <trkpt lat="43.7552" lon="4.86121">
        <ele>308.35</ele>
        <time>2016-09-25T08:35:04Z</time>
      </trkpt>
      <trkpt lat="43.7553" lon="4.86136">
        <ele>309.51</ele>
        <time>2016-09-25T08:35:15Z</time>
      </trkpt>
      <trkpt lat="43.7555" lon="4.86157">
        <ele>311.58</ele>
        <time>2016-09-25T08:35:26Z</time>
      </trkpt>
      <trkpt lat="43.7555" lon="4.86184">
        <ele>313.58</ele>
        <time>2016-09-25T08:35:38Z</time>
      </trkpt>
      <trkpt lat="43.7556" lon="4.86209">
        <ele>316.39</ele>
        <time>2016-09-25T08:35:51Z</time>
      </trkpt>
      <trkpt lat="43.7557" lon="4.8623">
        <ele>317.35</ele>
        <time>2016-09-25T08:36:00Z</time>
      </trkpt>
      <trkpt lat="43.7558" lon="4.86252">
        <ele>315.59</ele>
        <time>2016-09-25T08:36:07Z</time>
      </trkpt>
      <trkpt lat="43.7559" lon="4.86275">
        <ele>316.51</ele>
        <time>2016-09-25T08:36:13Z</time>
      </trkpt>
      <trkpt lat="43.7561" lon="4.86297">
        <ele>315.75</ele>
        <time>2016-09-25T08:36:18Z</time>
      </trkpt>
      <trkpt lat="43.7563" lon="4.86312">
        <ele>313.56</ele>
        <time>2016-09-25T08:36:23Z</time>
      </trkpt>
      <trkpt lat="43.7565" lon="4.86316">
        <ele>311.76</ele>
        <time>2016-09-25T08:36:29Z</time>
      </trkpt>
      <trkpt lat="43.7566" lon="4.86327">
        <ele>310.59</ele>
        <time>2016-09-25T08:36:34Z</time>
      </trkpt>
      <trkpt lat="43.7569" lon="4.86326">
        <ele>308.75</ele>
        <time>2016-09-25T08:36:38Z</time>
      </trkpt>
      <trkpt lat="43.7569" lon="4.863">
        <ele>304.75</ele>
        <time>2016-09-25T08:36:45Z</time>
      </trkpt>
      <trkpt lat="43.7569" lon="4.86274">
        <ele>303.62</ele>
        <time>2016-09-25T08:36:49Z</time>
      </trkpt>
      <trkpt lat="43.7568" lon="4.8625">
        <ele>304.95</ele>
        <time>2016-09-25T08:36:53Z</time>
      </trkpt>
      <trkpt lat="43.757" lon="4.86253">
        <ele>302.57</ele>
        <time>2016-09-25T08:37:04Z</time>
      </trkpt>
      <trkpt lat="43.7571" lon="4.86273">
        <ele>300.59</ele>
        <time>2016-09-25T08:37:10Z</time>
      </trkpt>
      <trkpt lat="43.7572" lon="4.86295">
        <ele>299.75</ele>
        <time>2016-09-25T08:37:16Z</time>
      </trkpt>
      <trkpt lat="43.7573" lon="4.8632">
        <ele>297.58</ele>
        <time>2016-09-25T08:37:22Z</time>
      </trkpt>
      <trkpt lat="43.7573" lon="4.86346">
        <ele>295.59</ele>
        <time>2016-09-25T08:37:27Z</time>
      </trkpt>
      <trkpt lat="43.7573" lon="4.86373">
        <ele>294.55</ele>
        <time>2016-09-25T08:37:33Z</time>
      </trkpt>
      <trkpt lat="43.7572" lon="4.86398">
        <ele>291.76</ele>
        <time>2016-09-25T08:37:39Z</time>
      </trkpt>
      <trkpt lat="43.757" lon="4.86421">
        <ele>290.51</ele>
        <time>2016-09-25T08:37:45Z</time>
      </trkpt>
      <trkpt lat="43.7569" lon="4.86445">
        <ele>291.35</ele>
        <time>2016-09-25T08:37:52Z</time>
      </trkpt>
      <trkpt lat="43.7569" lon="4.86472">
        <ele>291.51</ele>
        <time>2016-09-25T08:37:59Z</time>
      </trkpt>
      <trkpt lat="43.757" lon="4.86493">
        <ele>291.55</ele>
        <time>2016-09-25T08:38:06Z</time>
      </trkpt>
      <trkpt lat="43.7572" lon="4.8651">
        <ele>290.91</ele>
        <time>2016-09-25T08:38:12Z</time>
      </trkpt>
      <trkpt lat="43.757" lon="4.86516">
        <ele>287.62</ele>
        <time>2016-09-25T08:38:23Z</time>
      </trkpt>
      <trkpt lat="43.7568" lon="4.86524">
        <ele>284.36</ele>
        <time>2016-09-25T08:38:33Z</time>
      </trkpt>
      <trkpt lat="43.7567" lon="4.86548">
        <ele>285.51</ele>
        <time>2016-09-25T08:38:47Z</time>
      </trkpt>
      <trkpt lat="43.7566" lon="4.86571">
        <ele>285.35</ele>
        <time>2016-09-25T08:39:00Z</time>
      </trkpt>
      <trkpt lat="43.7565" lon="4.86592">
        <ele>288.51</ele>
        <time>2016-09-25T08:39:13Z</time>
      </trkpt>
      <trkpt lat="43.7566" lon="4.86618">
        <ele>291.74</ele>
        <time>2016-09-25T08:39:26Z</time>
      </trkpt>
      <trkpt lat="43.7566" lon="4.86642">
        <ele>296.34</ele>
        <time>2016-09-25T08:39:35Z</time>
      </trkpt>
      <trkpt lat="43.7567" lon="4.86669">
        <ele>296.58</ele>
        <time>2016-09-25T08:39:42Z</time>
      </trkpt>
      <trkpt lat="43.7567" lon="4.86698">
        <ele>292.79</ele>
        <time>2016-09-25T08:39:48Z</time>
      </trkpt>
      <trkpt lat="43.7568" lon="4.86726">
        <ele>291.59</ele>
        <time>2016-09-25T08:39:52Z</time>
      </trkpt>
      <trkpt lat="43.7568" lon="4.86753">
        <ele>291.36</ele>
        <time>2016-09-25T08:39:55Z</time>
      </trkpt>
      <trkpt lat="43.7569" lon="4.86783">
        <ele>291.71</ele>
        <time>2016-09-25T08:39:58Z</time>
      </trkpt>
      <trkpt lat="43.757" lon="4.86812">
        <ele>290.72</ele>
        <time>2016-09-25T08:40:01Z</time>
      </trkpt>
      <trkpt lat="43.757" lon="4.8684">
        <ele>290.52</ele>
        <time>2016-09-25T08:40:04Z</time>
      </trkpt>
      <trkpt lat="43.7571" lon="4.86866">
        <ele>290.55</ele>
        <time>2016-09-25T08:40:07Z</time>
      </trkpt>
      <trkpt lat="43.7571" lon="4.86894">
        <ele>290.36</ele>
        <time>2016-09-25T08:40:11Z</time>
      </trkpt>
      <trkpt lat="43.7572" lon="4.86921">
        <ele>289.43</ele>
        <time>2016-09-25T08:40:15Z</time>
      </trkpt>
      <trkpt lat="43.7572" lon="4.86946">
        <ele>288.55</ele>
        <time>2016-09-25T08:40:21Z</time>
      </trkpt>
      <trkpt lat="43.7571" lon="4.86967">
        <ele>283.75</ele>
        <time>2016-09-25T08:40:29Z</time>
      </trkpt>
      <trkpt lat="43.7569" lon="4.86989">
        <ele>282.55</ele>
        <time>2016-09-25T08:40:38Z</time>
      </trkpt>
      <trkpt lat="43.7568" lon="4.87009">
        <ele>280.59</ele>
        <time>2016-09-25T08:40:43Z</time>
      </trkpt>
      <trkpt lat="43.7566" lon="4.87029">
        <ele>277.8</ele>
        <time>2016-09-25T08:40:47Z</time>
      </trkpt>
      <trkpt lat="43.7565" lon="4.87051">
        <ele>276.59</ele>
        <time>2016-09-25T08:40:50Z</time>
      </trkpt>
      <trkpt lat="43.7563" lon="4.87074">
        <ele>275.56</ele>
        <time>2016-09-25T08:40:53Z</time>
      </trkpt>
      <trkpt lat="43.7561" lon="4.87099">
        <ele>275.55</ele>
        <time>2016-09-25T08:40:56Z</time>
      </trkpt>
      <trkpt lat="43.756" lon="4.87117">
        <ele>273.79</ele>
        <time>2016-09-25T08:40:59Z</time>
      </trkpt>
      <trkpt lat="43.7558" lon="4.87136">
        <ele>273.55</ele>
        <time>2016-09-25T08:41:02Z</time>
      </trkpt>
      <trkpt lat="43.7557" lon="4.87154">
        <ele>271.79</ele>
        <time>2016-09-25T08:41:05Z</time>
      </trkpt>
      <trkpt lat="43.7556" lon="4.87174">
        <ele>272.42</ele>
        <time>2016-09-25T08:41:09Z</time>
      </trkpt>
      <trkpt lat="43.7554" lon="4.872">
        <ele>271.55</ele>
        <time>2016-09-25T08:41:13Z</time>
      </trkpt>
      <trkpt lat="43.7554" lon="4.87225">
        <ele>270.55</ele>
        <time>2016-09-25T08:41:17Z</time>
      </trkpt>
      <trkpt lat="43.7555" lon="4.87259">
        <ele>270.55</ele>
        <time>2016-09-25T08:41:21Z</time>
      </trkpt>
      <trkpt lat="43.7556" lon="4.8729">
        <ele>269.55</ele>
        <time>2016-09-25T08:41:25Z</time>
      </trkpt>
      <trkpt lat="43.7556" lon="4.87318">
        <ele>266.68</ele>
        <time>2016-09-25T08:41:29Z</time>
      </trkpt>
      <trkpt lat="43.7557" lon="4.87342">
        <ele>264.79</ele>
        <time>2016-09-25T08:41:32Z</time>
      </trkpt>
      <trkpt lat="43.7557" lon="4.87369">
        <ele>264.42</ele>
        <time>2016-09-25T08:41:35Z</time>
      </trkpt>
      <trkpt lat="43.7557" lon="4.87396">
        <ele>262.63</ele>
        <time>2016-09-25T08:41:39Z</time>
      </trkpt>
      <trkpt lat="43.7558" lon="4.87421">
        <ele>260.76</ele>
        <time>2016-09-25T08:41:43Z</time>
      </trkpt>
      <trkpt lat="43.756" lon="4.87445">
        <ele>260.56</ele>
        <time>2016-09-25T08:41:47Z</time>
      </trkpt>
      <trkpt lat="43.7562" lon="4.87457">
        <ele>263.58</ele>
        <time>2016-09-25T08:41:51Z</time>
      </trkpt>
      <trkpt lat="43.7564" lon="4.87466">
        <ele>260.56</ele>
        <time>2016-09-25T08:41:55Z</time>
      </trkpt>
      <trkpt lat="43.7565" lon="4.87473">
        <ele>257.38</ele>
        <time>2016-09-25T08:41:58Z</time>
      </trkpt>
      <trkpt lat="43.7567" lon="4.87483">
        <ele>256.94</ele>
        <time>2016-09-25T08:42:01Z</time>
      </trkpt>
      <trkpt lat="43.757" lon="4.87484">
        <ele>255.75</ele>
        <time>2016-09-25T08:42:05Z</time>
      </trkpt>
      <trkpt lat="43.7571" lon="4.87478">
        <ele>255.58</ele>
        <time>2016-09-25T08:42:08Z</time>
      </trkpt>
      <trkpt lat="43.7573" lon="4.87478">
        <ele>255.55</ele>
        <time>2016-09-25T08:42:13Z</time>
      </trkpt>
      <trkpt lat="43.7574" lon="4.87505">
        <ele>253.54</ele>
        <time>2016-09-25T08:42:23Z</time>
      </trkpt>
      <trkpt lat="43.7572" lon="4.87523">
        <ele>253.39</ele>
        <time>2016-09-25T08:42:31Z</time>
      </trkpt>
      <trkpt lat="43.7571" lon="4.87544">
        <ele>253.35</ele>
        <time>2016-09-25T08:42:40Z</time>
      </trkpt>
      <trkpt lat="43.7571" lon="4.87572">
        <ele>252.55</ele>
        <time>2016-09-25T08:42:47Z</time>
      </trkpt>
      <trkpt lat="43.757" lon="4.87594">
        <ele>254.59</ele>
        <time>2016-09-25T08:42:54Z</time>
      </trkpt>
      <trkpt lat="43.7569" lon="4.87617">
        <ele>251.63</ele>
        <time>2016-09-25T08:43:02Z</time>
      </trkpt>
      <trkpt lat="43.7568" lon="4.8764">
        <ele>250.75</ele>
        <time>2016-09-25T08:43:07Z</time>
      </trkpt>
      <trkpt lat="43.7567" lon="4.87661">
        <ele>249.56</ele>
        <time>2016-09-25T08:43:11Z</time>
      </trkpt>
      <trkpt lat="43.7567" lon="4.8769">
        <ele>248.76</ele>
        <time>2016-09-25T08:43:16Z</time>
      </trkpt>
      <trkpt lat="43.7566" lon="4.87716">
        <ele>248.55</ele>
        <time>2016-09-25T08:43:21Z</time>
      </trkpt>
      <trkpt lat="43.7564" lon="4.8772">
        <ele>248.55</ele>
        <time>2016-09-25T08:43:29Z</time>
      </trkpt>
      <trkpt lat="43.7562" lon="4.87724">
        <ele>248.35</ele>
        <time>2016-09-25T08:43:36Z</time>
      </trkpt>
      <trkpt lat="43.7561" lon="4.8773">
        <ele>246.79</ele>
        <time>2016-09-25T08:43:43Z</time>
      </trkpt>
      <trkpt lat="43.7559" lon="4.87726">
        <ele>244.59</ele>
        <time>2016-09-25T08:43:50Z</time>
      </trkpt>
      <trkpt lat="43.7557" lon="4.87717">
        <ele>246.52</ele>
        <time>2016-09-25T08:43:56Z</time>
      </trkpt>
      <trkpt lat="43.7555" lon="4.87727">
        <ele>249.6</ele>
        <time>2016-09-25T08:44:03Z</time>
      </trkpt>
      <trkpt lat="43.7554" lon="4.8775">
        <ele>248.56</ele>
        <time>2016-09-25T08:44:11Z</time>
      </trkpt>
      <trkpt lat="43.7554" lon="4.87776">
        <ele>249.54</ele>
        <time>2016-09-25T08:44:20Z</time>
      </trkpt>
      <trkpt lat="43.7554" lon="4.87801">
        <ele>250.55</ele>
        <time>2016-09-25T08:44:31Z</time>
      </trkpt>
      <trkpt lat="43.7554" lon="4.87829">
        <ele>248.55</ele>
        <time>2016-09-25T08:44:41Z</time>
      </trkpt>
      <trkpt lat="43.7554" lon="4.87854">
        <ele>245.83</ele>
        <time>2016-09-25T08:44:46Z</time>
      </trkpt>
      <trkpt lat="43.7554" lon="4.87879">
        <ele>245.55</ele>
        <time>2016-09-25T08:44:52Z</time>
      </trkpt>
      <trkpt lat="43.7555" lon="4.87905">
        <ele>246.35</ele>
        <time>2016-09-25T08:44:59Z</time>
      </trkpt>
      <trkpt lat="43.7553" lon="4.87895">
        <ele>244.71</ele>
        <time>2016-09-25T08:45:10Z</time>
      </trkpt>
      <trkpt lat="43.7552" lon="4.87871">
        <ele>245.5</ele>
        <time>2016-09-25T08:45:20Z</time>
      </trkpt>
      <trkpt lat="43.7552" lon="4.87847">
        <ele>245.19</ele>
        <time>2016-09-25T08:45:32Z</time>
      </trkpt>
      <trkpt lat="43.755" lon="4.87826">
        <ele>248.32</ele>
        <time>2016-09-25T08:45:46Z</time>
      </trkpt>
      <trkpt lat="43.7549" lon="4.87804">
        <ele>254.34</ele>
        <time>2016-09-25T08:45:57Z</time>
      </trkpt>
      <trkpt lat="43.7549" lon="4.8778">
        <ele>251.54</ele>
        <time>2016-09-25T08:46:10Z</time>
      </trkpt>
      <trkpt lat="43.7547" lon="4.87769">
        <ele>251.58</ele>
        <time>2016-09-25T08:46:27Z</time>
      </trkpt>
      <trkpt lat="43.7546" lon="4.87791">
        <ele>257.71</ele>
        <time>2016-09-25T08:46:38Z</time>
      </trkpt>
      <trkpt lat="43.7546" lon="4.87817">
        <ele>258.39</ele>
        <time>2016-09-25T08:46:50Z</time>
      </trkpt>
      <trkpt lat="43.7546" lon="4.87842">
        <ele>260.59</ele>
        <time>2016-09-25T08:47:01Z</time>
      </trkpt>
      <trkpt lat="43.7546" lon="4.87867">
        <ele>260.56</ele>
        <time>2016-09-25T08:47:13Z</time>
      </trkpt>
      <trkpt lat="43.7546" lon="4.87895">
        <ele>259.59</ele>
        <time>2016-09-25T08:47:21Z</time>
      </trkpt>
      <trkpt lat="43.7545" lon="4.87918">
        <ele>261.3</ele>
        <time>2016-09-25T08:47:29Z</time>
      </trkpt>
      <trkpt lat="43.7544" lon="4.87941">
        <ele>263.35</ele>
        <time>2016-09-25T08:47:38Z</time>
      </trkpt>
      <trkpt lat="43.7544" lon="4.87969">
        <ele>262.56</ele>
        <time>2016-09-25T08:47:46Z</time>
      </trkpt>
      <trkpt lat="43.7543" lon="4.87997">
        <ele>262.54</ele>
        <time>2016-09-25T08:47:53Z</time>
      </trkpt>
      <trkpt lat="43.7542" lon="4.8802">
        <ele>261.52</ele>
        <time>2016-09-25T08:48:01Z</time>
      </trkpt>
      <trkpt lat="43.754" lon="4.8803">
        <ele>265.54</ele>
        <time>2016-09-25T08:48:10Z</time>
      </trkpt>
      <trkpt lat="43.7539" lon="4.88049">
        <ele>266.55</ele>
        <time>2016-09-25T08:48:21Z</time>
      </trkpt>
      <trkpt lat="43.7538" lon="4.88074">
        <ele>268.39</ele>
        <time>2016-09-25T08:48:30Z</time>
      </trkpt>
      <trkpt lat="43.7538" lon="4.88099">
        <ele>268.54</ele>
        <time>2016-09-25T08:48:44Z</time>
      </trkpt>
      <trkpt lat="43.7536" lon="4.88087">
        <ele>266.75</ele>
        <time>2016-09-25T08:48:59Z</time>
      </trkpt>
      <trkpt lat="43.7535" lon="4.88065">
        <ele>266.35</ele>
        <time>2016-09-25T08:49:07Z</time>
      </trkpt>
      <trkpt lat="43.7535" lon="4.88042">
        <ele>268.31</ele>
        <time>2016-09-25T08:49:16Z</time>
      </trkpt>
      <trkpt lat="43.7534" lon="4.88017">
        <ele>272.5</ele>
        <time>2016-09-25T08:49:28Z</time>
      </trkpt>
      <trkpt lat="43.7534" lon="4.87991">
        <ele>278.36</ele>
        <time>2016-09-25T08:49:43Z</time>
      </trkpt>
      <trkpt lat="43.7532" lon="4.87977">
        <ele>279.55</ele>
        <time>2016-09-25T08:49:55Z</time>
      </trkpt>
      <trkpt lat="43.753" lon="4.87976">
        <ele>277.76</ele>
        <time>2016-09-25T08:50:01Z</time>
      </trkpt>
      <trkpt lat="43.7528" lon="4.87974">
        <ele>276.55</ele>
        <time>2016-09-25T08:50:06Z</time>
      </trkpt>
      <trkpt lat="43.7527" lon="4.87953">
        <ele>274.75</ele>
        <time>2016-09-25T08:50:13Z</time>
      </trkpt>
      <trkpt lat="43.7525" lon="4.8797">
        <ele>271.99</ele>
        <time>2016-09-25T08:50:37Z</time>
      </trkpt>
      <trkpt lat="43.7524" lon="4.8799">
        <ele>264.64</ele>
        <time>2016-09-25T08:50:40Z</time>
      </trkpt>
      <trkpt lat="43.7523" lon="4.88014">
        <ele>263.59</ele>
        <time>2016-09-25T08:50:44Z</time>
      </trkpt>
      <trkpt lat="43.7523" lon="4.88041">
        <ele>262.58</ele>
        <time>2016-09-25T08:50:52Z</time>
      </trkpt>
      <trkpt lat="43.7522" lon="4.88061">
        <ele>265.55</ele>
        <time>2016-09-25T08:51:08Z</time>
      </trkpt>
      <trkpt lat="43.752" lon="4.88063">
        <ele>266.39</ele>
        <time>2016-09-25T08:51:20Z</time>
      </trkpt>
      <trkpt lat="43.7518" lon="4.88051">
        <ele>266.36</ele>
        <time>2016-09-25T08:51:27Z</time>
      </trkpt>
      <trkpt lat="43.7516" lon="4.88034">
        <ele>266.56</ele>
        <time>2016-09-25T08:51:35Z</time>
      </trkpt>
      <trkpt lat="43.7515" lon="4.8802">
        <ele>264.38</ele>
        <time>2016-09-25T08:51:42Z</time>
      </trkpt>
      <trkpt lat="43.7513" lon="4.88006">
        <ele>264.55</ele>
        <time>2016-09-25T08:51:48Z</time>
      </trkpt>
      <trkpt lat="43.7511" lon="4.88011">
        <ele>265.55</ele>
        <time>2016-09-25T08:51:55Z</time>
      </trkpt>
      <trkpt lat="43.7509" lon="4.88022">
        <ele>265.59</ele>
        <time>2016-09-25T08:52:00Z</time>
      </trkpt>
      <trkpt lat="43.7507" lon="4.88031">
        <ele>268.35</ele>
        <time>2016-09-25T08:52:05Z</time>
      </trkpt>
      <trkpt lat="43.7505" lon="4.88045">
        <ele>267.55</ele>
        <time>2016-09-25T08:52:11Z</time>
      </trkpt>
      <trkpt lat="43.7505" lon="4.88073">
        <ele>265.6</ele>
        <time>2016-09-25T08:52:18Z</time>
      </trkpt>
      <trkpt lat="43.7507" lon="4.88095">
        <ele>267.34</ele>
        <time>2016-09-25T08:52:22Z</time>
      </trkpt>
      <trkpt lat="43.7508" lon="4.88115">
        <ele>268.35</ele>
        <time>2016-09-25T08:52:26Z</time>
      </trkpt>
      <trkpt lat="43.751" lon="4.88131">
        <ele>267.56</ele>
        <time>2016-09-25T08:52:30Z</time>
      </trkpt>
      <trkpt lat="43.7511" lon="4.88145">
        <ele>268.75</ele>
        <time>2016-09-25T08:52:39Z</time>
      </trkpt>
      <trkpt lat="43.7513" lon="4.88155">
        <ele>269.63</ele>
        <time>2016-09-25T08:52:48Z</time>
      </trkpt>
      <trkpt lat="43.7515" lon="4.88159">
        <ele>267.55</ele>
        <time>2016-09-25T08:52:55Z</time>
      </trkpt>
      <trkpt lat="43.7515" lon="4.88185">
        <ele>271.34</ele>
        <time>2016-09-25T08:53:08Z</time>
      </trkpt>
      <trkpt lat="43.7513" lon="4.88192">
        <ele>271.51</ele>
        <time>2016-09-25T08:53:13Z</time>
      </trkpt>
      <trkpt lat="43.7511" lon="4.88199">
        <ele>270.4</ele>
        <time>2016-09-25T08:53:17Z</time>
      </trkpt>
      <trkpt lat="43.751" lon="4.88219">
        <ele>264.19</ele>
        <time>2016-09-25T08:53:21Z</time>
      </trkpt>
      <trkpt lat="43.7507" lon="4.88227">
        <ele>263.55</ele>
        <time>2016-09-25T08:53:26Z</time>
      </trkpt>
      <trkpt lat="43.7506" lon="4.88207">
        <ele>265.14</ele>
        <time>2016-09-25T08:53:31Z</time>
      </trkpt>
      <trkpt lat="43.7504" lon="4.88201">
        <ele>264.42</ele>
        <time>2016-09-25T08:53:35Z</time>
      </trkpt>
      <trkpt lat="43.7501" lon="4.88201">
        <ele>261.95</ele>
        <time>2016-09-25T08:53:39Z</time>
      </trkpt>
      <trkpt lat="43.7499" lon="4.88208">
        <ele>259.59</ele>
        <time>2016-09-25T08:53:43Z</time>
      </trkpt>
      <trkpt lat="43.7497" lon="4.88221">
        <ele>258.76</ele>
        <time>2016-09-25T08:53:47Z</time>
      </trkpt>
      <trkpt lat="43.7496" lon="4.88241">
        <ele>258.55</ele>
        <time>2016-09-25T08:53:51Z</time>
      </trkpt>
      <trkpt lat="43.7495" lon="4.88269">
        <ele>257.39</ele>
        <time>2016-09-25T08:53:55Z</time>
      </trkpt>
      <trkpt lat="43.7494" lon="4.88293">
        <ele>256.72</ele>
        <time>2016-09-25T08:53:58Z</time>
      </trkpt>
      <trkpt lat="43.7492" lon="4.8832">
        <ele>253.98</ele>
        <time>2016-09-25T08:54:02Z</time>
      </trkpt>
      <trkpt lat="43.7491" lon="4.8834">
        <ele>252.78</ele>
        <time>2016-09-25T08:54:06Z</time>
      </trkpt>
      <trkpt lat="43.7491" lon="4.88364">
        <ele>247.8</ele>
        <time>2016-09-25T08:54:11Z</time>
      </trkpt>
      <trkpt lat="43.7491" lon="4.88391">
        <ele>247.74</ele>
        <time>2016-09-25T08:54:15Z</time>
      </trkpt>
      <trkpt lat="43.7493" lon="4.88416">
        <ele>245.75</ele>
        <time>2016-09-25T08:54:19Z</time>
      </trkpt>
      <trkpt lat="43.7493" lon="4.88448">
        <ele>244.75</ele>
        <time>2016-09-25T08:54:22Z</time>
      </trkpt>
      <trkpt lat="43.7492" lon="4.88478">
        <ele>240.87</ele>
        <time>2016-09-25T08:54:25Z</time>
      </trkpt>
      <trkpt lat="43.7493" lon="4.88504">
        <ele>236.8</ele>
        <time>2016-09-25T08:54:29Z</time>
      </trkpt>
      <trkpt lat="43.7493" lon="4.88527">
        <ele>238.35</ele>
        <time>2016-09-25T08:54:33Z</time>
      </trkpt>
      <trkpt lat="43.7495" lon="4.88555">
        <ele>234.79</ele>
        <time>2016-09-25T08:54:37Z</time>
      </trkpt>
      <trkpt lat="43.7495" lon="4.88578">
        <ele>233.56</ele>
        <time>2016-09-25T08:54:40Z</time>
      </trkpt>
      <trkpt lat="43.7494" lon="4.88602">
        <ele>236.54</ele>
        <time>2016-09-25T08:54:53Z</time>
      </trkpt>
      <trkpt lat="43.7493" lon="4.8862">
        <ele>237.5</ele>
        <time>2016-09-25T08:55:04Z</time>
      </trkpt>
      <trkpt lat="43.7492" lon="4.8864">
        <ele>238.59</ele>
        <time>2016-09-25T08:55:11Z</time>
      </trkpt>
      <trkpt lat="43.7491" lon="4.88663">
        <ele>239.59</ele>
        <time>2016-09-25T08:55:17Z</time>
      </trkpt>
      <trkpt lat="43.749" lon="4.88688">
        <ele>239.39</ele>
        <time>2016-09-25T08:55:22Z</time>
      </trkpt>
      <trkpt lat="43.7491" lon="4.88719">
        <ele>235.59</ele>
        <time>2016-09-25T08:55:27Z</time>
      </trkpt>
      <trkpt lat="43.7492" lon="4.88741">
        <ele>234.75</ele>
        <time>2016-09-25T08:55:30Z</time>
      </trkpt>
      <trkpt lat="43.7493" lon="4.88767">
        <ele>234.55</ele>
        <time>2016-09-25T08:55:33Z</time>
      </trkpt>
      <trkpt lat="43.7494" lon="4.88798">
        <ele>232.6</ele>
        <time>2016-09-25T08:55:36Z</time>
      </trkpt>
      <trkpt lat="43.7494" lon="4.88827">
        <ele>230.76</ele>
        <time>2016-09-25T08:55:39Z</time>
      </trkpt>
      <trkpt lat="43.7495" lon="4.88853">
        <ele>229.75</ele>
        <time>2016-09-25T08:55:42Z</time>
      </trkpt>
      <trkpt lat="43.7495" lon="4.88883">
        <ele>225.81</ele>
        <time>2016-09-25T08:55:45Z</time>
      </trkpt>
      <trkpt lat="43.7496" lon="4.88914">
        <ele>224.56</ele>
        <time>2016-09-25T08:55:48Z</time>
      </trkpt>
      <trkpt lat="43.7496" lon="4.88942">
        <ele>223.75</ele>
        <time>2016-09-25T08:55:51Z</time>
      </trkpt>
      <trkpt lat="43.7497" lon="4.88972">
        <ele>222.56</ele>
        <time>2016-09-25T08:55:55Z</time>
      </trkpt>
      <trkpt lat="43.7498" lon="4.88995">
        <ele>219.8</ele>
        <time>2016-09-25T08:55:58Z</time>
      </trkpt>
      <trkpt lat="43.7499" lon="4.89019">
        <ele>216.8</ele>
        <time>2016-09-25T08:56:02Z</time>
      </trkpt>
      <trkpt lat="43.75" lon="4.89041">
        <ele>216.32</ele>
        <time>2016-09-25T08:56:06Z</time>
      </trkpt>
      <trkpt lat="43.7499" lon="4.89063">
        <ele>214.59</ele>
        <time>2016-09-25T08:56:16Z</time>
      </trkpt>
      <trkpt lat="43.7497" lon="4.89066">
        <ele>213.79</ele>
        <time>2016-09-25T08:56:22Z</time>
      </trkpt>
      <trkpt lat="43.7495" lon="4.89078">
        <ele>212.53</ele>
        <time>2016-09-25T08:56:28Z</time>
      </trkpt>
      <trkpt lat="43.7493" lon="4.89077">
        <ele>212.78</ele>
        <time>2016-09-25T08:56:32Z</time>
      </trkpt>
      <trkpt lat="43.7491" lon="4.89063">
        <ele>210.44</ele>
        <time>2016-09-25T08:56:36Z</time>
      </trkpt>
      <trkpt lat="43.7489" lon="4.89047">
        <ele>208.92</ele>
        <time>2016-09-25T08:56:39Z</time>
      </trkpt>
      <trkpt lat="43.7488" lon="4.89042">
        <ele>207.59</ele>
        <time>2016-09-25T08:56:42Z</time>
      </trkpt>
      <trkpt lat="43.7486" lon="4.89049">
        <ele>206.78</ele>
        <time>2016-09-25T08:56:45Z</time>
      </trkpt>
      <trkpt lat="43.7484" lon="4.89047">
        <ele>207.31</ele>
        <time>2016-09-25T08:56:49Z</time>
      </trkpt>
      <trkpt lat="43.7482" lon="4.89047">
        <ele>206.59</ele>
        <time>2016-09-25T08:56:55Z</time>
      </trkpt>
      <trkpt lat="43.748" lon="4.89055">
        <ele>205.76</ele>
        <time>2016-09-25T08:57:01Z</time>
      </trkpt>
      <trkpt lat="43.7479" lon="4.89072">
        <ele>206.51</ele>
        <time>2016-09-25T08:57:06Z</time>
      </trkpt>
      <trkpt lat="43.7477" lon="4.8909">
        <ele>208.51</ele>
        <time>2016-09-25T08:57:12Z</time>
      </trkpt>
      <trkpt lat="43.7476" lon="4.89112">
        <ele>218.35</ele>
        <time>2016-09-25T08:57:19Z</time>
      </trkpt>
      <trkpt lat="43.7476" lon="4.89137">
        <ele>215.35</ele>
        <time>2016-09-25T08:57:29Z</time>
      </trkpt>
      <trkpt lat="43.7476" lon="4.89164">
        <ele>213.57</ele>
        <time>2016-09-25T08:57:37Z</time>
      </trkpt>
      <trkpt lat="43.7477" lon="4.89189">
        <ele>213.55</ele>
        <time>2016-09-25T08:57:44Z</time>
      </trkpt>
      <trkpt lat="43.7478" lon="4.89215">
        <ele>214.32</ele>
        <time>2016-09-25T08:57:51Z</time>
      </trkpt>
      <trkpt lat="43.7478" lon="4.89241">
        <ele>213.51</ele>
        <time>2016-09-25T08:57:58Z</time>
      </trkpt>
      <trkpt lat="43.7477" lon="4.89262">
        <ele>213.55</ele>
        <time>2016-09-25T08:58:03Z</time>
      </trkpt>
      <trkpt lat="43.7475" lon="4.89253">
        <ele>212.94</ele>
        <time>2016-09-25T08:58:07Z</time>
      </trkpt>
      <trkpt lat="43.7474" lon="4.89244">
        <ele>210.62</ele>
        <time>2016-09-25T08:58:11Z</time>
      </trkpt>
      <trkpt lat="43.7472" lon="4.89263">
        <ele>214.16</ele>
        <time>2016-09-25T08:58:17Z</time>
      </trkpt>
      <trkpt lat="43.7471" lon="4.8928">
        <ele>212.59</ele>
        <time>2016-09-25T08:58:25Z</time>
      </trkpt>
      <trkpt lat="43.7469" lon="4.89289">
        <ele>210.55</ele>
        <time>2016-09-25T08:58:31Z</time>
      </trkpt>
      <trkpt lat="43.7467" lon="4.89299">
        <ele>208.52</ele>
        <time>2016-09-25T08:58:41Z</time>
      </trkpt>
      <trkpt lat="43.7465" lon="4.89317">
        <ele>209.34</ele>
        <time>2016-09-25T08:58:47Z</time>
      </trkpt>
      <trkpt lat="43.7464" lon="4.89334">
        <ele>208.79</ele>
        <time>2016-09-25T08:58:55Z</time>
      </trkpt>
      <trkpt lat="43.7462" lon="4.89355">
        <ele>209.39</ele>
        <time>2016-09-25T08:59:02Z</time>
      </trkpt>
      <trkpt lat="43.7461" lon="4.8937">
        <ele>209.54</ele>
        <time>2016-09-25T08:59:11Z</time>
      </trkpt>
      <trkpt lat="43.7459" lon="4.89385">
        <ele>212.5</ele>
        <time>2016-09-25T08:59:17Z</time>
      </trkpt>
      <trkpt lat="43.7458" lon="4.89403">
        <ele>215.15</ele>
        <time>2016-09-25T08:59:24Z</time>
      </trkpt>
      <trkpt lat="43.7457" lon="4.89427">
        <ele>215.35</ele>
        <time>2016-09-25T08:59:31Z</time>
      </trkpt>
      <trkpt lat="43.7455" lon="4.89448">
        <ele>216.55</ele>
        <time>2016-09-25T08:59:37Z</time>
      </trkpt>
      <trkpt lat="43.7455" lon="4.89474">
        <ele>218.35</ele>
        <time>2016-09-25T08:59:43Z</time>
      </trkpt>
      <trkpt lat="43.7454" lon="4.89499">
        <ele>216.63</ele>
        <time>2016-09-25T08:59:48Z</time>
      </trkpt>
      <trkpt lat="43.7454" lon="4.89526">
        <ele>216.55</ele>
        <time>2016-09-25T08:59:52Z</time>
      </trkpt>
      <trkpt lat="43.7454" lon="4.89552">
        <ele>215.75</ele>
        <time>2016-09-25T08:59:55Z</time>
      </trkpt>
      <trkpt lat="43.7453" lon="4.89578">
        <ele>215.49</ele>
        <time>2016-09-25T08:59:58Z</time>
      </trkpt>
      <trkpt lat="43.7452" lon="4.89596">
        <ele>214.56</ele>
        <time>2016-09-25T09:00:01Z</time>
      </trkpt>
      <trkpt lat="43.745" lon="4.89609">
        <ele>212.21</ele>
        <time>2016-09-25T09:00:05Z</time>
      </trkpt>
      <trkpt lat="43.7449" lon="4.89616">
        <ele>212.59</ele>
        <time>2016-09-25T09:00:11Z</time>
      </trkpt>
      <trkpt lat="43.7447" lon="4.89632">
        <ele>214.55</ele>
        <time>2016-09-25T09:00:18Z</time>
      </trkpt>
      <trkpt lat="43.7447" lon="4.8966">
        <ele>214.56</ele>
        <time>2016-09-25T09:00:26Z</time>
      </trkpt>
      <trkpt lat="43.7445" lon="4.89684">
        <ele>217.35</ele>
        <time>2016-09-25T09:00:34Z</time>
      </trkpt>
      <trkpt lat="43.7444" lon="4.89708">
        <ele>216.78</ele>
        <time>2016-09-25T09:00:42Z</time>
      </trkpt>
      <trkpt lat="43.7443" lon="4.89729">
        <ele>215.55</ele>
        <time>2016-09-25T09:00:50Z</time>
      </trkpt>
      <trkpt lat="43.7442" lon="4.89751">
        <ele>217.55</ele>
        <time>2016-09-25T09:00:58Z</time>
      </trkpt>
      <trkpt lat="43.7442" lon="4.89776">
        <ele>219.54</ele>
        <time>2016-09-25T09:01:10Z</time>
      </trkpt>
      <trkpt lat="43.7442" lon="4.89802">
        <ele>218.55</ele>
        <time>2016-09-25T09:01:21Z</time>
      </trkpt>
      <trkpt lat="43.7441" lon="4.89827">
        <ele>221.51</ele>
        <time>2016-09-25T09:01:33Z</time>
      </trkpt>
      <trkpt lat="43.7441" lon="4.89852">
        <ele>226.31</ele>
        <time>2016-09-25T09:01:49Z</time>
      </trkpt>
      <trkpt lat="43.744" lon="4.89878">
        <ele>228.75</ele>
        <time>2016-09-25T09:02:03Z</time>
      </trkpt>
      <trkpt lat="43.7441" lon="4.89907">
        <ele>230.51</ele>
        <time>2016-09-25T09:02:12Z</time>
      </trkpt>
      <trkpt lat="43.744" lon="4.89933">
        <ele>231.34</ele>
        <time>2016-09-25T09:02:18Z</time>
      </trkpt>
      <trkpt lat="43.7441" lon="4.89961">
        <ele>226.79</ele>
        <time>2016-09-25T09:02:24Z</time>
      </trkpt>
      <trkpt lat="43.7441" lon="4.89986">
        <ele>226.38</ele>
        <time>2016-09-25T09:02:29Z</time>
      </trkpt>
      <trkpt lat="43.7441" lon="4.90011">
        <ele>225.71</ele>
        <time>2016-09-25T09:02:36Z</time>
      </trkpt>
      <trkpt lat="43.7441" lon="4.90035">
        <ele>226.55</ele>
        <time>2016-09-25T09:03:03Z</time>
      </trkpt>
      <trkpt lat="43.7442" lon="4.9006">
        <ele>229</ele>
        <time>2016-09-25T09:03:12Z</time>
      </trkpt>
      <trkpt lat="43.7442" lon="4.90086">
        <ele>227.59</ele>
        <time>2016-09-25T09:03:16Z</time>
      </trkpt>
      <trkpt lat="43.7441" lon="4.90113">
        <ele>226.51</ele>
        <time>2016-09-25T09:03:20Z</time>
      </trkpt>
      <trkpt lat="43.744" lon="4.90139">
        <ele>226.52</ele>
        <time>2016-09-25T09:03:24Z</time>
      </trkpt>
      <trkpt lat="43.744" lon="4.90171">
        <ele>222.56</ele>
        <time>2016-09-25T09:03:28Z</time>
      </trkpt>
      <trkpt lat="43.7439" lon="4.90199">
        <ele>220.6</ele>
        <time>2016-09-25T09:03:31Z</time>
      </trkpt>
      <trkpt lat="43.7438" lon="4.90232">
        <ele>219.59</ele>
        <time>2016-09-25T09:03:34Z</time>
      </trkpt>
      <trkpt lat="43.7438" lon="4.90265">
        <ele>216.48</ele>
        <time>2016-09-25T09:03:37Z</time>
      </trkpt>
      <trkpt lat="43.7438" lon="4.90299">
        <ele>217.57</ele>
        <time>2016-09-25T09:03:40Z</time>
      </trkpt>
      <trkpt lat="43.7438" lon="4.90329">
        <ele>215.76</ele>
        <time>2016-09-25T09:03:43Z</time>
      </trkpt>
      <trkpt lat="43.7438" lon="4.90354">
        <ele>214.59</ele>
        <time>2016-09-25T09:03:46Z</time>
      </trkpt>
      <trkpt lat="43.7439" lon="4.9038">
        <ele>211.76</ele>
        <time>2016-09-25T09:03:50Z</time>
      </trkpt>
      <trkpt lat="43.744" lon="4.90408">
        <ele>210.79</ele>
        <time>2016-09-25T09:03:54Z</time>
      </trkpt>
      <trkpt lat="43.7441" lon="4.90433">
        <ele>210.56</ele>
        <time>2016-09-25T09:03:58Z</time>
      </trkpt>
      <trkpt lat="43.744" lon="4.90459">
        <ele>209.92</ele>
        <time>2016-09-25T09:04:02Z</time>
      </trkpt>
      <trkpt lat="43.7439" lon="4.90484">
        <ele>210.12</ele>
        <time>2016-09-25T09:04:06Z</time>
      </trkpt>
      <trkpt lat="43.7438" lon="4.90513">
        <ele>207.44</ele>
        <time>2016-09-25T09:04:11Z</time>
      </trkpt>
      <trkpt lat="43.7437" lon="4.90539">
        <ele>207.58</ele>
        <time>2016-09-25T09:04:16Z</time>
      </trkpt>
      <trkpt lat="43.7437" lon="4.90565">
        <ele>206.56</ele>
        <time>2016-09-25T09:04:24Z</time>
      </trkpt>
      <trkpt lat="43.7438" lon="4.90588">
        <ele>205.75</ele>
        <time>2016-09-25T09:04:30Z</time>
      </trkpt>
      <trkpt lat="43.7438" lon="4.90612">
        <ele>203.34</ele>
        <time>2016-09-25T09:05:17Z</time>
      </trkpt>
      <trkpt lat="43.7438" lon="4.90637">
        <ele>212.83</ele>
        <time>2016-09-25T09:05:40Z</time>
      </trkpt>
      <trkpt lat="43.7438" lon="4.90663">
        <ele>212.71</ele>
        <time>2016-09-25T09:05:45Z</time>
      </trkpt>
      <trkpt lat="43.7438" lon="4.90701">
        <ele>209.59</ele>
        <time>2016-09-25T09:05:53Z</time>
      </trkpt>
      <trkpt lat="43.7439" lon="4.90726">
        <ele>206.67</ele>
        <time>2016-09-25T09:05:56Z</time>
      </trkpt>
      <trkpt lat="43.7438" lon="4.90753">
        <ele>203.56</ele>
        <time>2016-09-25T09:06:00Z</time>
      </trkpt>
      <trkpt lat="43.7438" lon="4.90779">
        <ele>199.2</ele>
        <time>2016-09-25T09:06:04Z</time>
      </trkpt>
      <trkpt lat="43.7437" lon="4.90804">
        <ele>195.35</ele>
        <time>2016-09-25T09:06:09Z</time>
      </trkpt>
      <trkpt lat="43.7437" lon="4.90828">
        <ele>195.74</ele>
        <time>2016-09-25T09:06:13Z</time>
      </trkpt>
      <trkpt lat="43.7437" lon="4.90857">
        <ele>194.55</ele>
        <time>2016-09-25T09:06:19Z</time>
      </trkpt>
      <trkpt lat="43.7437" lon="4.90884">
        <ele>194.51</ele>
        <time>2016-09-25T09:06:25Z</time>
      </trkpt>
      <trkpt lat="43.7436" lon="4.90916">
        <ele>194.75</ele>
        <time>2016-09-25T09:06:29Z</time>
      </trkpt>
      <trkpt lat="43.7436" lon="4.90943">
        <ele>194.19</ele>
        <time>2016-09-25T09:06:33Z</time>
      </trkpt>
      <trkpt lat="43.7436" lon="4.90971">
        <ele>190.68</ele>
        <time>2016-09-25T09:06:36Z</time>
      </trkpt>
      <trkpt lat="43.7437" lon="4.90999">
        <ele>194.5</ele>
        <time>2016-09-25T09:06:40Z</time>
      </trkpt>
      <trkpt lat="43.7437" lon="4.91025">
        <ele>193.52</ele>
        <time>2016-09-25T09:06:45Z</time>
      </trkpt>
      <trkpt lat="43.7436" lon="4.91051">
        <ele>192.62</ele>
        <time>2016-09-25T09:06:49Z</time>
      </trkpt>
      <trkpt lat="43.7436" lon="4.91077">
        <ele>189.8</ele>
        <time>2016-09-25T09:06:53Z</time>
      </trkpt>
      <trkpt lat="43.7436" lon="4.91105">
        <ele>188.56</ele>
        <time>2016-09-25T09:06:57Z</time>
      </trkpt>
      <trkpt lat="43.7437" lon="4.91133">
        <ele>187.53</ele>
        <time>2016-09-25T09:07:01Z</time>
      </trkpt>
      <trkpt lat="43.7436" lon="4.91158">
        <ele>185.76</ele>
        <time>2016-09-25T09:07:05Z</time>
      </trkpt>
      <trkpt lat="43.7437" lon="4.91183">
        <ele>186.66</ele>
        <time>2016-09-25T09:07:11Z</time>
      </trkpt>
      <trkpt lat="43.7438" lon="4.91209">
        <ele>187.39</ele>
        <time>2016-09-25T09:07:16Z</time>
      </trkpt>
      <trkpt lat="43.7439" lon="4.91229">
        <ele>189.79</ele>
        <time>2016-09-25T09:07:20Z</time>
      </trkpt>
      <trkpt lat="43.744" lon="4.91257">
        <ele>187.98</ele>
        <time>2016-09-25T09:07:24Z</time>
      </trkpt>
      <trkpt lat="43.744" lon="4.91283">
        <ele>186.35</ele>
        <time>2016-09-25T09:07:28Z</time>
      </trkpt>
      <trkpt lat="43.744" lon="4.91309">
        <ele>182.04</ele>
        <time>2016-09-25T09:07:31Z</time>
      </trkpt>
      <trkpt lat="43.744" lon="4.91339">
        <ele>181.59</ele>
        <time>2016-09-25T09:07:35Z</time>
      </trkpt>
      <trkpt lat="43.744" lon="4.91367">
        <ele>177.99</ele>
        <time>2016-09-25T09:07:39Z</time>
      </trkpt>
      <trkpt lat="43.744" lon="4.91399">
        <ele>177.56</ele>
        <time>2016-09-25T09:07:43Z</time>
      </trkpt>
      <trkpt lat="43.7441" lon="4.91422">
        <ele>176.72</ele>
        <time>2016-09-25T09:07:46Z</time>
      </trkpt>
      <trkpt lat="43.744" lon="4.91451">
        <ele>173.79</ele>
        <time>2016-09-25T09:07:50Z</time>
      </trkpt>
      <trkpt lat="43.7441" lon="4.91476">
        <ele>171.79</ele>
        <time>2016-09-25T09:07:53Z</time>
      </trkpt>
      <trkpt lat="43.7441" lon="4.91502">
        <ele>171.55</ele>
        <time>2016-09-25T09:07:56Z</time>
      </trkpt>
      <trkpt lat="43.7441" lon="4.91527">
        <ele>171.59</ele>
        <time>2016-09-25T09:08:01Z</time>
      </trkpt>
      <trkpt lat="43.7441" lon="4.91554">
        <ele>168.55</ele>
        <time>2016-09-25T09:08:08Z</time>
      </trkpt>
      <trkpt lat="43.7441" lon="4.91579">
        <ele>167.58</ele>
        <time>2016-09-25T09:08:13Z</time>
      </trkpt>
      <trkpt lat="43.7441" lon="4.91605">
        <ele>166.56</ele>
        <time>2016-09-25T09:08:18Z</time>
      </trkpt>
      <trkpt lat="43.7441" lon="4.91633">
        <ele>164.76</ele>
        <time>2016-09-25T09:08:23Z</time>
      </trkpt>
      <trkpt lat="43.7441" lon="4.91661">
        <ele>162.6</ele>
        <time>2016-09-25T09:08:28Z</time>
      </trkpt>
      <trkpt lat="43.7442" lon="4.91691">
        <ele>163.32</ele>
        <time>2016-09-25T09:08:32Z</time>
      </trkpt>
      <trkpt lat="43.7442" lon="4.91723">
        <ele>162.75</ele>
        <time>2016-09-25T09:08:36Z</time>
      </trkpt>
      <trkpt lat="43.7442" lon="4.9175">
        <ele>162.35</ele>
        <time>2016-09-25T09:08:40Z</time>
      </trkpt>
      <trkpt lat="43.7442" lon="4.91776">
        <ele>159.71</ele>
        <time>2016-09-25T09:08:47Z</time>
      </trkpt>
      <trkpt lat="43.7442" lon="4.91804">
        <ele>159.39</ele>
        <time>2016-09-25T09:08:52Z</time>
      </trkpt>
      <trkpt lat="43.7441" lon="4.91833">
        <ele>157.72</ele>
        <time>2016-09-25T09:08:56Z</time>
      </trkpt>
      <trkpt lat="43.744" lon="4.91857">
        <ele>157.74</ele>
        <time>2016-09-25T09:08:59Z</time>
      </trkpt>
      <trkpt lat="43.7439" lon="4.91888">
        <ele>158.34</ele>
        <time>2016-09-25T09:09:03Z</time>
      </trkpt>
      <trkpt lat="43.7438" lon="4.91912">
        <ele>159.35</ele>
        <time>2016-09-25T09:09:06Z</time>
      </trkpt>
      <trkpt lat="43.7438" lon="4.9194">
        <ele>157.37</ele>
        <time>2016-09-25T09:09:09Z</time>
      </trkpt>
      <trkpt lat="43.7438" lon="4.91972">
        <ele>156.72</ele>
        <time>2016-09-25T09:09:12Z</time>
      </trkpt>
      <trkpt lat="43.7438" lon="4.92004">
        <ele>152.97</ele>
        <time>2016-09-25T09:09:15Z</time>
      </trkpt>
      <trkpt lat="43.7439" lon="4.92035">
        <ele>152.55</ele>
        <time>2016-09-25T09:09:18Z</time>
      </trkpt>
      <trkpt lat="43.7441" lon="4.92051">
        <ele>150.76</ele>
        <time>2016-09-25T09:09:21Z</time>
      </trkpt>
      <trkpt lat="43.7444" lon="4.92058">
        <ele>147.8</ele>
        <time>2016-09-25T09:09:24Z</time>
      </trkpt>
      <trkpt lat="43.7446" lon="4.92061">
        <ele>146.6</ele>
        <time>2016-09-25T09:09:26Z</time>
      </trkpt>
      <trkpt lat="43.7448" lon="4.92064">
        <ele>145.75</ele>
        <time>2016-09-25T09:09:28Z</time>
      </trkpt>
      <trkpt lat="43.745" lon="4.92071">
        <ele>146.39</ele>
        <time>2016-09-25T09:09:30Z</time>
      </trkpt>
      <trkpt lat="43.7452" lon="4.92072">
        <ele>147.34</ele>
        <time>2016-09-25T09:09:32Z</time>
      </trkpt>
      <trkpt lat="43.7454" lon="4.92072">
        <ele>147.54</ele>
        <time>2016-09-25T09:09:34Z</time>
      </trkpt>
      <trkpt lat="43.7457" lon="4.92074">
        <ele>145.6</ele>
        <time>2016-09-25T09:09:37Z</time>
      </trkpt>
      <trkpt lat="43.746" lon="4.92077">
        <ele>145.74</ele>
        <time>2016-09-25T09:09:40Z</time>
      </trkpt>
      <trkpt lat="43.7462" lon="4.92085">
        <ele>146.16</ele>
        <time>2016-09-25T09:09:43Z</time>
      </trkpt>
      <trkpt lat="43.7464" lon="4.92091">
        <ele>146.54</ele>
        <time>2016-09-25T09:09:47Z</time>
      </trkpt>
      <trkpt lat="43.7465" lon="4.92108">
        <ele>145.36</ele>
        <time>2016-09-25T09:09:52Z</time>
      </trkpt>
      <trkpt lat="43.7467" lon="4.92116">
        <ele>142.72</ele>
        <time>2016-09-25T09:09:58Z</time>
      </trkpt>
      <trkpt lat="43.7469" lon="4.92102">
        <ele>143.55</ele>
        <time>2016-09-25T09:10:02Z</time>
      </trkpt>
      <trkpt lat="43.7471" lon="4.92096">
        <ele>142.75</ele>
        <time>2016-09-25T09:10:05Z</time>
      </trkpt>
      <trkpt lat="43.7473" lon="4.92088">
        <ele>143.51</ele>
        <time>2016-09-25T09:10:08Z</time>
      </trkpt>
      <trkpt lat="43.7475" lon="4.92079">
        <ele>144.54</ele>
        <time>2016-09-25T09:10:11Z</time>
      </trkpt>
      <trkpt lat="43.7477" lon="4.92071">
        <ele>145.35</ele>
        <time>2016-09-25T09:10:14Z</time>
      </trkpt>
      <trkpt lat="43.7479" lon="4.92062">
        <ele>146.35</ele>
        <time>2016-09-25T09:10:17Z</time>
      </trkpt>
      <trkpt lat="43.7481" lon="4.9206">
        <ele>145.75</ele>
        <time>2016-09-25T09:10:20Z</time>
      </trkpt>
      <trkpt lat="43.7484" lon="4.92067">
        <ele>145.52</ele>
        <time>2016-09-25T09:10:23Z</time>
      </trkpt>
      <trkpt lat="43.7486" lon="4.9208">
        <ele>146.16</ele>
        <time>2016-09-25T09:10:26Z</time>
      </trkpt>
      <trkpt lat="43.7488" lon="4.92093">
        <ele>144.77</ele>
        <time>2016-09-25T09:10:28Z</time>
      </trkpt>
      <trkpt lat="43.749" lon="4.92111">
        <ele>143.56</ele>
        <time>2016-09-25T09:10:31Z</time>
      </trkpt>
      <trkpt lat="43.7492" lon="4.92125">
        <ele>144.51</ele>
        <time>2016-09-25T09:10:33Z</time>
      </trkpt>
      <trkpt lat="43.7494" lon="4.92138">
        <ele>141.67</ele>
        <time>2016-09-25T09:10:35Z</time>
      </trkpt>
      <trkpt lat="43.7496" lon="4.9215">
        <ele>140.59</ele>
        <time>2016-09-25T09:10:37Z</time>
      </trkpt>
      <trkpt lat="43.7498" lon="4.92164">
        <ele>141.19</ele>
        <time>2016-09-25T09:10:39Z</time>
      </trkpt>
      <trkpt lat="43.75" lon="4.92177">
        <ele>141.7</ele>
        <time>2016-09-25T09:10:41Z</time>
      </trkpt>
      <trkpt lat="43.7502" lon="4.92191">
        <ele>140.44</ele>
        <time>2016-09-25T09:10:43Z</time>
      </trkpt>
      <trkpt lat="43.7503" lon="4.92204">
        <ele>138.63</ele>
        <time>2016-09-25T09:10:45Z</time>
      </trkpt>
      <trkpt lat="43.7506" lon="4.92217">
        <ele>137.59</ele>
        <time>2016-09-25T09:10:47Z</time>
      </trkpt>
      <trkpt lat="43.7508" lon="4.92228">
        <ele>137.55</ele>
        <time>2016-09-25T09:10:49Z</time>
      </trkpt>
      <trkpt lat="43.751" lon="4.92235">
        <ele>136.59</ele>
        <time>2016-09-25T09:10:51Z</time>
      </trkpt>
      <trkpt lat="43.7511" lon="4.9223">
        <ele>134.79</ele>
        <time>2016-09-25T09:10:53Z</time>
      </trkpt>
      <trkpt lat="43.7513" lon="4.92231">
        <ele>133.76</ele>
        <time>2016-09-25T09:10:55Z</time>
      </trkpt>
      <trkpt lat="43.7515" lon="4.92232">
        <ele>133.56</ele>
        <time>2016-09-25T09:10:57Z</time>
      </trkpt>
      <trkpt lat="43.7518" lon="4.92239">
        <ele>132.91</ele>
        <time>2016-09-25T09:10:59Z</time>
      </trkpt>
      <trkpt lat="43.752" lon="4.92248">
        <ele>130.48</ele>
        <time>2016-09-25T09:11:01Z</time>
      </trkpt>
      <trkpt lat="43.7522" lon="4.92254">
        <ele>130.71</ele>
        <time>2016-09-25T09:11:03Z</time>
      </trkpt>
      <trkpt lat="43.7524" lon="4.92267">
        <ele>130.56</ele>
        <time>2016-09-25T09:11:05Z</time>
      </trkpt>
      <trkpt lat="43.7526" lon="4.92276">
        <ele>130.55</ele>
        <time>2016-09-25T09:11:07Z</time>
      </trkpt>
      <trkpt lat="43.7528" lon="4.92286">
        <ele>131.19</ele>
        <time>2016-09-25T09:11:09Z</time>
      </trkpt>
      <trkpt lat="43.753" lon="4.92304">
        <ele>128.8</ele>
        <time>2016-09-25T09:11:12Z</time>
      </trkpt>
      <trkpt lat="43.7531" lon="4.92315">
        <ele>125.68</ele>
        <time>2016-09-25T09:11:14Z</time>
      </trkpt>
      <trkpt lat="43.7534" lon="4.92329">
        <ele>122.96</ele>
        <time>2016-09-25T09:11:17Z</time>
      </trkpt>
      <trkpt lat="43.7536" lon="4.92344">
        <ele>120.79</ele>
        <time>2016-09-25T09:11:20Z</time>
      </trkpt>
      <trkpt lat="43.7538" lon="4.92357">
        <ele>120.71</ele>
        <time>2016-09-25T09:11:23Z</time>
      </trkpt>
      <trkpt lat="43.754" lon="4.92372">
        <ele>119.59</ele>
        <time>2016-09-25T09:11:26Z</time>
      </trkpt>
      <trkpt lat="43.7542" lon="4.92387">
        <ele>118.75</ele>
        <time>2016-09-25T09:11:29Z</time>
      </trkpt>
      <trkpt lat="43.7544" lon="4.92398">
        <ele>118.56</ele>
        <time>2016-09-25T09:11:31Z</time>
      </trkpt>
      <trkpt lat="43.7546" lon="4.92412">
        <ele>119.54</ele>
        <time>2016-09-25T09:11:34Z</time>
      </trkpt>
      <trkpt lat="43.7548" lon="4.92423">
        <ele>117.63</ele>
        <time>2016-09-25T09:11:36Z</time>
      </trkpt>
      <trkpt lat="43.755" lon="4.92436">
        <ele>116.75</ele>
        <time>2016-09-25T09:11:39Z</time>
      </trkpt>
      <trkpt lat="43.7552" lon="4.9245">
        <ele>115.72</ele>
        <time>2016-09-25T09:11:42Z</time>
      </trkpt>
      <trkpt lat="43.7554" lon="4.92461">
        <ele>113.79</ele>
        <time>2016-09-25T09:11:45Z</time>
      </trkpt>
      <trkpt lat="43.7556" lon="4.92462">
        <ele>111.79</ele>
        <time>2016-09-25T09:11:48Z</time>
      </trkpt>
      <trkpt lat="43.7559" lon="4.92459">
        <ele>112.35</ele>
        <time>2016-09-25T09:11:51Z</time>
      </trkpt>
      <trkpt lat="43.7561" lon="4.9246">
        <ele>116.1</ele>
        <time>2016-09-25T09:11:54Z</time>
      </trkpt>
      <trkpt lat="43.7563" lon="4.92464">
        <ele>117.51</ele>
        <time>2016-09-25T09:11:57Z</time>
      </trkpt>
      <trkpt lat="43.7565" lon="4.92465">
        <ele>117.36</ele>
        <time>2016-09-25T09:12:00Z</time>
      </trkpt>
      <trkpt lat="43.7567" lon="4.92469">
        <ele>117.39</ele>
        <time>2016-09-25T09:12:03Z</time>
      </trkpt>
      <trkpt lat="43.7569" lon="4.92461">
        <ele>116.56</ele>
        <time>2016-09-25T09:12:06Z</time>
      </trkpt>
      <trkpt lat="43.757" lon="4.92437">
        <ele>116.55</ele>
        <time>2016-09-25T09:12:10Z</time>
      </trkpt>
      <trkpt lat="43.7571" lon="4.9242">
        <ele>114.76</ele>
        <time>2016-09-25T09:12:13Z</time>
      </trkpt>
      <trkpt lat="43.7573" lon="4.92409">
        <ele>115.54</ele>
        <time>2016-09-25T09:12:16Z</time>
      </trkpt>
      <trkpt lat="43.7575" lon="4.92393">
        <ele>115.93</ele>
        <time>2016-09-25T09:12:19Z</time>
      </trkpt>
      <trkpt lat="43.7576" lon="4.92365">
        <ele>116.19</ele>
        <time>2016-09-25T09:12:23Z</time>
      </trkpt>
      <trkpt lat="43.7577" lon="4.92337">
        <ele>115.39</ele>
        <time>2016-09-25T09:12:27Z</time>
      </trkpt>
      <trkpt lat="43.7577" lon="4.92309">
        <ele>114.58</ele>
        <time>2016-09-25T09:12:31Z</time>
      </trkpt>
      <trkpt lat="43.7578" lon="4.92285">
        <ele>116.51</ele>
        <time>2016-09-25T09:12:36Z</time>
      </trkpt>
      <trkpt lat="43.758" lon="4.92264">
        <ele>116.59</ele>
        <time>2016-09-25T09:12:40Z</time>
      </trkpt>
      <trkpt lat="43.7581" lon="4.92239">
        <ele>114.55</ele>
        <time>2016-09-25T09:12:44Z</time>
      </trkpt>
      <trkpt lat="43.7582" lon="4.92222">
        <ele>115.87</ele>
        <time>2016-09-25T09:12:48Z</time>
      </trkpt>
      <trkpt lat="43.7583" lon="4.92203">
        <ele>114.63</ele>
        <time>2016-09-25T09:12:52Z</time>
      </trkpt>
      <trkpt lat="43.7585" lon="4.92184">
        <ele>115.74</ele>
        <time>2016-09-25T09:12:56Z</time>
      </trkpt>
      <trkpt lat="43.7586" lon="4.92165">
        <ele>116.51</ele>
        <time>2016-09-25T09:13:00Z</time>
      </trkpt>
      <trkpt lat="43.7587" lon="4.92139">
        <ele>117.5</ele>
        <time>2016-09-25T09:13:04Z</time>
      </trkpt>
      <trkpt lat="43.7588" lon="4.92119">
        <ele>118.32</ele>
        <time>2016-09-25T09:13:08Z</time>
      </trkpt>
      <trkpt lat="43.759" lon="4.92107">
        <ele>115.41</ele>
        <time>2016-09-25T09:13:11Z</time>
      </trkpt>
      <trkpt lat="43.7591" lon="4.92083">
        <ele>113.37</ele>
        <time>2016-09-25T09:13:14Z</time>
      </trkpt>
      <trkpt lat="43.7592" lon="4.92067">
        <ele>113.55</ele>
        <time>2016-09-25T09:13:17Z</time>
      </trkpt>
      <trkpt lat="43.7594" lon="4.92048">
        <ele>113.71</ele>
        <time>2016-09-25T09:13:20Z</time>
      </trkpt>
      <trkpt lat="43.7595" lon="4.92022">
        <ele>113.39</ele>
        <time>2016-09-25T09:13:23Z</time>
      </trkpt>
      <trkpt lat="43.7597" lon="4.92009">
        <ele>113.55</ele>
        <time>2016-09-25T09:13:26Z</time>
      </trkpt>
      <trkpt lat="43.7599" lon="4.91991">
        <ele>114.35</ele>
        <time>2016-09-25T09:13:30Z</time>
      </trkpt>
      <trkpt lat="43.7601" lon="4.91964">
        <ele>113.75</ele>
        <time>2016-09-25T09:13:34Z</time>
      </trkpt>
      <trkpt lat="43.7602" lon="4.91944">
        <ele>113.78</ele>
        <time>2016-09-25T09:13:38Z</time>
      </trkpt>
      <trkpt lat="43.7603" lon="4.91919">
        <ele>118.06</ele>
        <time>2016-09-25T09:13:42Z</time>
      </trkpt>
      <trkpt lat="43.7604" lon="4.91891">
        <ele>111.93</ele>
        <time>2016-09-25T09:13:46Z</time>
      </trkpt>
      <trkpt lat="43.7606" lon="4.91868">
        <ele>113.14</ele>
        <time>2016-09-25T09:13:50Z</time>
      </trkpt>
      <trkpt lat="43.7607" lon="4.9185">
        <ele>111.86</ele>
        <time>2016-09-25T09:13:54Z</time>
      </trkpt>
      <trkpt lat="43.7609" lon="4.91832">
        <ele>113.22</ele>
        <time>2016-09-25T09:13:58Z</time>
      </trkpt>
      <trkpt lat="43.761" lon="4.91808">
        <ele>112.59</ele>
        <time>2016-09-25T09:14:02Z</time>
      </trkpt>
      <trkpt lat="43.7611" lon="4.9179">
        <ele>113.54</ele>
        <time>2016-09-25T09:14:06Z</time>
      </trkpt>
      <trkpt lat="43.7612" lon="4.91764">
        <ele>112.59</ele>
        <time>2016-09-25T09:14:11Z</time>
      </trkpt>
      <trkpt lat="43.7614" lon="4.9174">
        <ele>112.55</ele>
        <time>2016-09-25T09:14:16Z</time>
      </trkpt>
      <trkpt lat="43.7616" lon="4.91724">
        <ele>113.48</ele>
        <time>2016-09-25T09:14:21Z</time>
      </trkpt>
      <trkpt lat="43.7617" lon="4.91703">
        <ele>111.95</ele>
        <time>2016-09-25T09:14:25Z</time>
      </trkpt>
      <trkpt lat="43.7618" lon="4.91684">
        <ele>109.98</ele>
        <time>2016-09-25T09:14:29Z</time>
      </trkpt>
      <trkpt lat="43.7619" lon="4.91664">
        <ele>111.57</ele>
        <time>2016-09-25T09:14:33Z</time>
      </trkpt>
      <trkpt lat="43.7621" lon="4.91658">
        <ele>110.76</ele>
        <time>2016-09-25T09:14:37Z</time>
      </trkpt>
      <trkpt lat="43.7623" lon="4.91643">
        <ele>112.51</ele>
        <time>2016-09-25T09:14:42Z</time>
      </trkpt>
      <trkpt lat="43.7624" lon="4.91623">
        <ele>114.55</ele>
        <time>2016-09-25T09:14:48Z</time>
      </trkpt>
      <trkpt lat="43.7625" lon="4.91604">
        <ele>117.31</ele>
        <time>2016-09-25T09:14:53Z</time>
      </trkpt>
      <trkpt lat="43.7626" lon="4.9158">
        <ele>114.13</ele>
        <time>2016-09-25T09:15:00Z</time>
      </trkpt>
      <trkpt lat="43.7627" lon="4.91557">
        <ele>117.14</ele>
        <time>2016-09-25T09:15:07Z</time>
      </trkpt>
      <trkpt lat="43.7627" lon="4.91528">
        <ele>117.55</ele>
        <time>2016-09-25T09:15:13Z</time>
      </trkpt>
      <trkpt lat="43.7627" lon="4.91501">
        <ele>113.16</ele>
        <time>2016-09-25T09:15:19Z</time>
      </trkpt>
      <trkpt lat="43.7627" lon="4.91478">
        <ele>114.52</ele>
        <time>2016-09-25T09:15:25Z</time>
      </trkpt>
      <trkpt lat="43.7626" lon="4.9145">
        <ele>113.55</ele>
        <time>2016-09-25T09:15:33Z</time>
      </trkpt>
      <trkpt lat="43.7626" lon="4.91424">
        <ele>115.38</ele>
        <time>2016-09-25T09:15:42Z</time>
      </trkpt>
      <trkpt lat="43.7626" lon="4.91397">
        <ele>118.65</ele>
        <time>2016-09-25T09:15:50Z</time>
      </trkpt>
      <trkpt lat="43.7626" lon="4.91371">
        <ele>118.52</ele>
        <time>2016-09-25T09:15:55Z</time>
      </trkpt>
      <trkpt lat="43.7627" lon="4.91345">
        <ele>119.35</ele>
        <time>2016-09-25T09:16:00Z</time>
      </trkpt>
      <trkpt lat="43.7627" lon="4.9132">
        <ele>119.55</ele>
        <time>2016-09-25T09:16:04Z</time>
      </trkpt>
      <trkpt lat="43.7628" lon="4.91294">
        <ele>116.79</ele>
        <time>2016-09-25T09:16:10Z</time>
      </trkpt>
      <trkpt lat="43.7629" lon="4.91273">
        <ele>119.54</ele>
        <time>2016-09-25T09:16:15Z</time>
      </trkpt>
      <trkpt lat="43.763" lon="4.91245">
        <ele>118.4</ele>
        <time>2016-09-25T09:16:20Z</time>
      </trkpt>
      <trkpt lat="43.7631" lon="4.91219">
        <ele>117.4</ele>
        <time>2016-09-25T09:16:25Z</time>
      </trkpt>
      <trkpt lat="43.7631" lon="4.9119">
        <ele>116.55</ele>
        <time>2016-09-25T09:16:29Z</time>
      </trkpt>
      <trkpt lat="43.7632" lon="4.91164">
        <ele>116.68</ele>
        <time>2016-09-25T09:16:33Z</time>
      </trkpt>
      <trkpt lat="43.7632" lon="4.91134">
        <ele>114.63</ele>
        <time>2016-09-25T09:16:38Z</time>
      </trkpt>
      <trkpt lat="43.7633" lon="4.91104">
        <ele>117.47</ele>
        <time>2016-09-25T09:16:43Z</time>
      </trkpt>
      <trkpt lat="43.7632" lon="4.91079">
        <ele>117.54</ele>
        <time>2016-09-25T09:16:47Z</time>
      </trkpt>
      <trkpt lat="43.7632" lon="4.91049">
        <ele>116.6</ele>
        <time>2016-09-25T09:16:52Z</time>
      </trkpt>
      <trkpt lat="43.7632" lon="4.91023">
        <ele>107.55</ele>
        <time>2016-09-25T09:16:56Z</time>
      </trkpt>
      <trkpt lat="43.7633" lon="4.90994">
        <ele>111.5</ele>
        <time>2016-09-25T09:17:01Z</time>
      </trkpt>
      <trkpt lat="43.7634" lon="4.90977">
        <ele>112.36</ele>
        <time>2016-09-25T09:17:05Z</time>
      </trkpt>
      <trkpt lat="43.7634" lon="4.90952">
        <ele>114.7</ele>
        <time>2016-09-25T09:17:09Z</time>
      </trkpt>
      <trkpt lat="43.7635" lon="4.90926">
        <ele>116.3</ele>
        <time>2016-09-25T09:17:13Z</time>
      </trkpt>
      <trkpt lat="43.7636" lon="4.90897">
        <ele>117.7</ele>
        <time>2016-09-25T09:17:17Z</time>
      </trkpt>
      <trkpt lat="43.7637" lon="4.90874">
        <ele>116.79</ele>
        <time>2016-09-25T09:17:21Z</time>
      </trkpt>
      <trkpt lat="43.7638" lon="4.90847">
        <ele>118.34</ele>
        <time>2016-09-25T09:17:25Z</time>
      </trkpt>
      <trkpt lat="43.764" lon="4.90832">
        <ele>118.55</ele>
        <time>2016-09-25T09:17:29Z</time>
      </trkpt>
      <trkpt lat="43.7641" lon="4.90804">
        <ele>117.76</ele>
        <time>2016-09-25T09:17:33Z</time>
      </trkpt>
      <trkpt lat="43.7642" lon="4.90783">
        <ele>116.39</ele>
        <time>2016-09-25T09:17:37Z</time>
      </trkpt>
      <trkpt lat="43.7643" lon="4.90763">
        <ele>117.61</ele>
        <time>2016-09-25T09:17:41Z</time>
      </trkpt>
      <trkpt lat="43.7643" lon="4.90732">
        <ele>118.71</ele>
        <time>2016-09-25T09:17:46Z</time>
      </trkpt>
      <trkpt lat="43.7643" lon="4.90704">
        <ele>117.55</ele>
        <time>2016-09-25T09:17:51Z</time>
      </trkpt>
      <trkpt lat="43.7644" lon="4.9068">
        <ele>117.59</ele>
        <time>2016-09-25T09:17:55Z</time>
      </trkpt>
      <trkpt lat="43.7645" lon="4.90658">
        <ele>114</ele>
        <time>2016-09-25T09:17:58Z</time>
      </trkpt>
      <trkpt lat="43.7646" lon="4.90626">
        <ele>113.39</ele>
        <time>2016-09-25T09:18:01Z</time>
      </trkpt>
      <trkpt lat="43.7646" lon="4.90595">
        <ele>110.59</ele>
        <time>2016-09-25T09:18:05Z</time>
      </trkpt>
      <trkpt lat="43.7647" lon="4.9057">
        <ele>109.78</ele>
        <time>2016-09-25T09:18:08Z</time>
      </trkpt>
      <trkpt lat="43.7647" lon="4.90542">
        <ele>107.48</ele>
        <time>2016-09-25T09:18:12Z</time>
      </trkpt>
      <trkpt lat="43.7648" lon="4.90512">
        <ele>106.4</ele>
        <time>2016-09-25T09:18:16Z</time>
      </trkpt>
      <trkpt lat="43.7648" lon="4.90487">
        <ele>109.15</ele>
        <time>2016-09-25T09:18:20Z</time>
      </trkpt>
      <trkpt lat="43.7648" lon="4.90458">
        <ele>109.56</ele>
        <time>2016-09-25T09:18:27Z</time>
      </trkpt>
      <trkpt lat="43.7649" lon="4.90428">
        <ele>108.43</ele>
        <time>2016-09-25T09:18:30Z</time>
      </trkpt>
      <trkpt lat="43.7649" lon="4.90401">
        <ele>111.27</ele>
        <time>2016-09-25T09:18:33Z</time>
      </trkpt>
      <trkpt lat="43.7649" lon="4.9037">
        <ele>110.58</ele>
        <time>2016-09-25T09:18:37Z</time>
      </trkpt>
      <trkpt lat="43.765" lon="4.90347">
        <ele>113.14</ele>
        <time>2016-09-25T09:18:40Z</time>
      </trkpt>
      <trkpt lat="43.7651" lon="4.90317">
        <ele>115.15</ele>
        <time>2016-09-25T09:18:44Z</time>
      </trkpt>
      <trkpt lat="43.7651" lon="4.90288">
        <ele>113.79</ele>
        <time>2016-09-25T09:18:48Z</time>
      </trkpt>
      <trkpt lat="43.7652" lon="4.90261">
        <ele>114.55</ele>
        <time>2016-09-25T09:18:52Z</time>
      </trkpt>
      <trkpt lat="43.7653" lon="4.90242">
        <ele>116.15</ele>
        <time>2016-09-25T09:18:57Z</time>
      </trkpt>
      <trkpt lat="43.7654" lon="4.9022">
        <ele>117.31</ele>
        <time>2016-09-25T09:19:02Z</time>
      </trkpt>
      <trkpt lat="43.7655" lon="4.90194">
        <ele>115.55</ele>
        <time>2016-09-25T09:19:07Z</time>
      </trkpt>
      <trkpt lat="43.7655" lon="4.90166">
        <ele>116.35</ele>
        <time>2016-09-25T09:19:13Z</time>
      </trkpt>
      <trkpt lat="43.7656" lon="4.90138">
        <ele>117.38</ele>
        <time>2016-09-25T09:19:19Z</time>
      </trkpt>
      <trkpt lat="43.7656" lon="4.9011">
        <ele>120.51</ele>
        <time>2016-09-25T09:19:27Z</time>
      </trkpt>
      <trkpt lat="43.7657" lon="4.90082">
        <ele>122.36</ele>
        <time>2016-09-25T09:19:33Z</time>
      </trkpt>
      <trkpt lat="43.7658" lon="4.90061">
        <ele>120.55</ele>
        <time>2016-09-25T09:19:39Z</time>
      </trkpt>
      <trkpt lat="43.7659" lon="4.90039">
        <ele>119.31</ele>
        <time>2016-09-25T09:19:44Z</time>
      </trkpt>
      <trkpt lat="43.766" lon="4.90013">
        <ele>119.54</ele>
        <time>2016-09-25T09:19:49Z</time>
      </trkpt>
      <trkpt lat="43.766" lon="4.89984">
        <ele>120.54</ele>
        <time>2016-09-25T09:19:54Z</time>
      </trkpt>
      <trkpt lat="43.7661" lon="4.89956">
        <ele>122.31</ele>
        <time>2016-09-25T09:20:00Z</time>
      </trkpt>
      <trkpt lat="43.7662" lon="4.89937">
        <ele>121.54</ele>
        <time>2016-09-25T09:20:05Z</time>
      </trkpt>
      <trkpt lat="43.766" lon="4.8992">
        <ele>123.5</ele>
        <time>2016-09-25T09:20:12Z</time>
      </trkpt>
      <trkpt lat="43.7659" lon="4.89916">
        <ele>124.35</ele>
        <time>2016-09-25T09:20:22Z</time>
      </trkpt>
      <trkpt lat="43.7657" lon="4.89912">
        <ele>125.35</ele>
        <time>2016-09-25T09:20:32Z</time>
      </trkpt>
      <trkpt lat="43.7655" lon="4.89905">
        <ele>126.59</ele>
        <time>2016-09-25T09:20:41Z</time>
      </trkpt>
      <trkpt lat="43.7653" lon="4.89899">
        <ele>127.71</ele>
        <time>2016-09-25T09:20:50Z</time>
      </trkpt>
      <trkpt lat="43.7651" lon="4.8989">
        <ele>127.75</ele>
        <time>2016-09-25T09:20:59Z</time>
      </trkpt>
      <trkpt lat="43.765" lon="4.89883">
        <ele>129.54</ele>
        <time>2016-09-25T09:21:08Z</time>
      </trkpt>
      <trkpt lat="43.7648" lon="4.89876">
        <ele>129.72</ele>
        <time>2016-09-25T09:21:17Z</time>
      </trkpt>
      <trkpt lat="43.7646" lon="4.8987">
        <ele>132.35</ele>
        <time>2016-09-25T09:21:26Z</time>
      </trkpt>
      <trkpt lat="43.7644" lon="4.89859">
        <ele>131.52</ele>
        <time>2016-09-25T09:21:40Z</time>
      </trkpt>
      <trkpt lat="43.7643" lon="4.89847">
        <ele>130.55</ele>
        <time>2016-09-25T09:21:51Z</time>
      </trkpt>
      <trkpt lat="43.7643" lon="4.89818">
        <ele>124.76</ele>
        <time>2016-09-25T09:21:58Z</time>
      </trkpt>
      <trkpt lat="43.7642" lon="4.89794">
        <ele>125.15</ele>
        <time>2016-09-25T09:22:02Z</time>
      </trkpt>
      <trkpt lat="43.7641" lon="4.89773">
        <ele>125.55</ele>
        <time>2016-09-25T09:22:06Z</time>
      </trkpt>
      <trkpt lat="43.764" lon="4.89745">
        <ele>127.12</ele>
        <time>2016-09-25T09:22:10Z</time>
      </trkpt>
      <trkpt lat="43.7641" lon="4.89719">
        <ele>127.55</ele>
        <time>2016-09-25T09:22:13Z</time>
      </trkpt>
      <trkpt lat="43.7641" lon="4.89688">
        <ele>126.72</ele>
        <time>2016-09-25T09:22:16Z</time>
      </trkpt>
      <trkpt lat="43.7642" lon="4.89665">
        <ele>126.58</ele>
        <time>2016-09-25T09:22:19Z</time>
      </trkpt>
      <trkpt lat="43.7643" lon="4.89634">
        <ele>125.69</ele>
        <time>2016-09-25T09:22:23Z</time>
      </trkpt>
      <trkpt lat="43.7643" lon="4.89603">
        <ele>126.35</ele>
        <time>2016-09-25T09:22:27Z</time>
      </trkpt>
      <trkpt lat="43.7642" lon="4.89577">
        <ele>132.34</ele>
        <time>2016-09-25T09:22:35Z</time>
      </trkpt>
      <trkpt lat="43.7642" lon="4.89552">
        <ele>128.79</ele>
        <time>2016-09-25T09:22:45Z</time>
      </trkpt>
      <trkpt lat="43.7641" lon="4.89525">
        <ele>128.75</ele>
        <time>2016-09-25T09:22:55Z</time>
      </trkpt>
      <trkpt lat="43.7641" lon="4.89497">
        <ele>129.35</ele>
        <time>2016-09-25T09:23:00Z</time>
      </trkpt>
      <trkpt lat="43.7642" lon="4.8947">
        <ele>131.11</ele>
        <time>2016-09-25T09:23:04Z</time>
      </trkpt>
      <trkpt lat="43.7643" lon="4.89442">
        <ele>128.95</ele>
        <time>2016-09-25T09:23:08Z</time>
      </trkpt>
      <trkpt lat="43.7643" lon="4.8941">
        <ele>130.38</ele>
        <time>2016-09-25T09:23:13Z</time>
      </trkpt>
      <trkpt lat="43.7643" lon="4.89384">
        <ele>128.56</ele>
        <time>2016-09-25T09:23:17Z</time>
      </trkpt>
      <trkpt lat="43.7642" lon="4.89358">
        <ele>128.75</ele>
        <time>2016-09-25T09:23:22Z</time>
      </trkpt>
      <trkpt lat="43.7643" lon="4.8933">
        <ele>125.83</ele>
        <time>2016-09-25T09:23:27Z</time>
      </trkpt>
      <trkpt lat="43.7643" lon="4.893">
        <ele>123.6</ele>
        <time>2016-09-25T09:23:31Z</time>
      </trkpt>
      <trkpt lat="43.7644" lon="4.89267">
        <ele>122.74</ele>
        <time>2016-09-25T09:23:35Z</time>
      </trkpt>
      <trkpt lat="43.7644" lon="4.8924">
        <ele>121.43</ele>
        <time>2016-09-25T09:23:38Z</time>
      </trkpt>
      <trkpt lat="43.7644" lon="4.89208">
        <ele>120.98</ele>
        <time>2016-09-25T09:23:42Z</time>
      </trkpt>
      <trkpt lat="43.7645" lon="4.89183">
        <ele>122.32</ele>
        <time>2016-09-25T09:23:55Z</time>
      </trkpt>
      <trkpt lat="43.7645" lon="4.89157">
        <ele>124.55</ele>
        <time>2016-09-25T09:24:09Z</time>
      </trkpt>
      <trkpt lat="43.7645" lon="4.8913">
        <ele>125.72</ele>
        <time>2016-09-25T09:24:26Z</time>
      </trkpt>
      <trkpt lat="43.7646" lon="4.89107">
        <ele>121.36</ele>
        <time>2016-09-25T09:24:41Z</time>
      </trkpt>
      <trkpt lat="43.7645" lon="4.89084">
        <ele>121.42</ele>
        <time>2016-09-25T09:24:50Z</time>
      </trkpt>
      <trkpt lat="43.7645" lon="4.89057">
        <ele>122.67</ele>
        <time>2016-09-25T09:25:00Z</time>
      </trkpt>
      <trkpt lat="43.7645" lon="4.89031">
        <ele>120.55</ele>
        <time>2016-09-25T09:25:11Z</time>
      </trkpt>
      <trkpt lat="43.7645" lon="4.89004">
        <ele>125.15</ele>
        <time>2016-09-25T09:25:25Z</time>
      </trkpt>
      <trkpt lat="43.7644" lon="4.88979">
        <ele>126.75</ele>
        <time>2016-09-25T09:25:37Z</time>
      </trkpt>
      <trkpt lat="43.7644" lon="4.88956">
        <ele>130.51</ele>
        <time>2016-09-25T09:26:30Z</time>
      </trkpt>
      <trkpt lat="43.7644" lon="4.8893">
        <ele>127.24</ele>
        <time>2016-09-25T09:26:37Z</time>
      </trkpt>
      <trkpt lat="43.7643" lon="4.88905">
        <ele>130.34</ele>
        <time>2016-09-25T09:26:47Z</time>
      </trkpt>
      <trkpt lat="43.7643" lon="4.88879">
        <ele>131.95</ele>
        <time>2016-09-25T09:26:58Z</time>
      </trkpt>
      <trkpt lat="43.7643" lon="4.88853">
        <ele>132.3</ele>
        <time>2016-09-25T09:27:08Z</time>
      </trkpt>
      <trkpt lat="43.7643" lon="4.88827">
        <ele>135.55</ele>
        <time>2016-09-25T09:27:18Z</time>
      </trkpt>
      <trkpt lat="43.7643" lon="4.888">
        <ele>131.91</ele>
        <time>2016-09-25T09:27:25Z</time>
      </trkpt>
      <trkpt lat="43.7642" lon="4.8877">
        <ele>134.85</ele>
        <time>2016-09-25T09:27:30Z</time>
      </trkpt>
      <trkpt lat="43.7642" lon="4.88744">
        <ele>134.74</ele>
        <time>2016-09-25T09:27:34Z</time>
      </trkpt>
      <trkpt lat="43.7642" lon="4.88719">
        <ele>136.34</ele>
        <time>2016-09-25T09:27:42Z</time>
      </trkpt>
      <trkpt lat="43.7642" lon="4.88694">
        <ele>138.36</ele>
        <time>2016-09-25T09:27:56Z</time>
      </trkpt>
      <trkpt lat="43.7642" lon="4.88665">
        <ele>134.83</ele>
        <time>2016-09-25T09:28:06Z</time>
      </trkpt>
      <trkpt lat="43.7642" lon="4.8864">
        <ele>134.72</ele>
        <time>2016-09-25T09:28:20Z</time>
      </trkpt>
      <trkpt lat="43.7642" lon="4.88614">
        <ele>138.53</ele>
        <time>2016-09-25T09:28:34Z</time>
      </trkpt>
      <trkpt lat="43.7642" lon="4.88588">
        <ele>143.58</ele>
        <time>2016-09-25T09:28:49Z</time>
      </trkpt>
      <trkpt lat="43.7642" lon="4.88561">
        <ele>144.38</ele>
        <time>2016-09-25T09:28:56Z</time>
      </trkpt>
      <trkpt lat="43.7641" lon="4.88533">
        <ele>146.55</ele>
        <time>2016-09-25T09:29:09Z</time>
      </trkpt>
      <trkpt lat="43.7641" lon="4.88508">
        <ele>144.56</ele>
        <time>2016-09-25T09:29:18Z</time>
      </trkpt>
      <trkpt lat="43.7642" lon="4.8848">
        <ele>141.71</ele>
        <time>2016-09-25T09:29:23Z</time>
      </trkpt>
      <trkpt lat="43.7641" lon="4.88454">
        <ele>143.5</ele>
        <time>2016-09-25T09:29:26Z</time>
      </trkpt>
      <trkpt lat="43.7642" lon="4.88427">
        <ele>136.89</ele>
        <time>2016-09-25T09:29:31Z</time>
      </trkpt>
      <trkpt lat="43.7641" lon="4.88398">
        <ele>137.92</ele>
        <time>2016-09-25T09:29:39Z</time>
      </trkpt>
      <trkpt lat="43.7642" lon="4.88373">
        <ele>138.75</ele>
        <time>2016-09-25T09:29:47Z</time>
      </trkpt>
      <trkpt lat="43.7641" lon="4.88349">
        <ele>143.09</ele>
        <time>2016-09-25T09:29:59Z</time>
      </trkpt>
      <trkpt lat="43.7641" lon="4.88324">
        <ele>142.55</ele>
        <time>2016-09-25T09:30:13Z</time>
      </trkpt>
      <trkpt lat="43.7641" lon="4.88296">
        <ele>144.55</ele>
        <time>2016-09-25T09:30:21Z</time>
      </trkpt>
      <trkpt lat="43.7642" lon="4.88272">
        <ele>138.64</ele>
        <time>2016-09-25T09:30:27Z</time>
      </trkpt>
      <trkpt lat="43.7642" lon="4.88241">
        <ele>139.55</ele>
        <time>2016-09-25T09:30:35Z</time>
      </trkpt>
      <trkpt lat="43.7642" lon="4.88215">
        <ele>138.91</ele>
        <time>2016-09-25T09:30:41Z</time>
      </trkpt>
      <trkpt lat="43.7641" lon="4.88187">
        <ele>140.35</ele>
        <time>2016-09-25T09:30:49Z</time>
      </trkpt>
      <trkpt lat="43.764" lon="4.88166">
        <ele>145.7</ele>
        <time>2016-09-25T09:30:59Z</time>
      </trkpt>
      <trkpt lat="43.7639" lon="4.88144">
        <ele>143.59</ele>
        <time>2016-09-25T09:31:04Z</time>
      </trkpt>
      <trkpt lat="43.7639" lon="4.88119">
        <ele>140.98</ele>
        <time>2016-09-25T09:31:08Z</time>
      </trkpt>
      <trkpt lat="43.764" lon="4.88092">
        <ele>140.74</ele>
        <time>2016-09-25T09:31:12Z</time>
      </trkpt>
      <trkpt lat="43.7641" lon="4.88071">
        <ele>140.56</ele>
        <time>2016-09-25T09:31:16Z</time>
      </trkpt>
      <trkpt lat="43.7642" lon="4.88045">
        <ele>137.98</ele>
        <time>2016-09-25T09:31:21Z</time>
      </trkpt>
      <trkpt lat="43.7643" lon="4.88023">
        <ele>138.71</ele>
        <time>2016-09-25T09:31:30Z</time>
      </trkpt>
      <trkpt lat="43.7644" lon="4.88007">
        <ele>137.71</ele>
        <time>2016-09-25T09:31:37Z</time>
      </trkpt>
      <trkpt lat="43.7646" lon="4.87986">
        <ele>137.29</ele>
        <time>2016-09-25T09:31:43Z</time>
      </trkpt>
      <trkpt lat="43.7645" lon="4.87965">
        <ele>137.51</ele>
        <time>2016-09-25T09:31:49Z</time>
      </trkpt>
      <trkpt lat="43.7643" lon="4.87973">
        <ele>135.52</ele>
        <time>2016-09-25T09:31:55Z</time>
      </trkpt>
      <trkpt lat="43.7641" lon="4.87961">
        <ele>134.55</ele>
        <time>2016-09-25T09:32:03Z</time>
      </trkpt>
      <trkpt lat="43.7641" lon="4.87931">
        <ele>131.75</ele>
        <time>2016-09-25T09:32:11Z</time>
      </trkpt>
      <trkpt lat="43.764" lon="4.87907">
        <ele>133.31</ele>
        <time>2016-09-25T09:32:28Z</time>
      </trkpt>
      <trkpt lat="43.764" lon="4.8788">
        <ele>135.51</ele>
        <time>2016-09-25T09:32:39Z</time>
      </trkpt>
      <trkpt lat="43.764" lon="4.87852">
        <ele>131.53</ele>
        <time>2016-09-25T09:32:45Z</time>
      </trkpt>
      <trkpt lat="43.764" lon="4.87825">
        <ele>132.27</ele>
        <time>2016-09-25T09:32:50Z</time>
      </trkpt>
      <trkpt lat="43.7639" lon="4.87801">
        <ele>131.98</ele>
        <time>2016-09-25T09:32:55Z</time>
      </trkpt>
      <trkpt lat="43.764" lon="4.87774">
        <ele>130.6</ele>
        <time>2016-09-25T09:33:00Z</time>
      </trkpt>
      <trkpt lat="43.7641" lon="4.87753">
        <ele>133.46</ele>
        <time>2016-09-25T09:33:06Z</time>
      </trkpt>
      <trkpt lat="43.7642" lon="4.87729">
        <ele>135.34</ele>
        <time>2016-09-25T09:33:11Z</time>
      </trkpt>
      <trkpt lat="43.7643" lon="4.87714">
        <ele>135.35</ele>
        <time>2016-09-25T09:33:16Z</time>
      </trkpt>
      <trkpt lat="43.7645" lon="4.87697">
        <ele>138.91</ele>
        <time>2016-09-25T09:33:22Z</time>
      </trkpt>
      <trkpt lat="43.7646" lon="4.87673">
        <ele>141.94</ele>
        <time>2016-09-25T09:33:29Z</time>
      </trkpt>
      <trkpt lat="43.7646" lon="4.87645">
        <ele>142.55</ele>
        <time>2016-09-25T09:33:35Z</time>
      </trkpt>
      <trkpt lat="43.7647" lon="4.87613">
        <ele>141.95</ele>
        <time>2016-09-25T09:33:39Z</time>
      </trkpt>
      <trkpt lat="43.7648" lon="4.87578">
        <ele>138.96</ele>
        <time>2016-09-25T09:33:42Z</time>
      </trkpt>
      <trkpt lat="43.7648" lon="4.87552">
        <ele>136.79</ele>
        <time>2016-09-25T09:33:45Z</time>
      </trkpt>
      <trkpt lat="43.7649" lon="4.87527">
        <ele>118.16</ele>
        <time>2016-09-25T09:33:53Z</time>
      </trkpt>
      <trkpt lat="43.7651" lon="4.87535">
        <ele>126.26</ele>
        <time>2016-09-25T09:34:00Z</time>
      </trkpt>
      <trkpt lat="43.7653" lon="4.8754">
        <ele>127.51</ele>
        <time>2016-09-25T09:34:04Z</time>
      </trkpt>
      <trkpt lat="43.7655" lon="4.87537">
        <ele>125.37</ele>
        <time>2016-09-25T09:34:08Z</time>
      </trkpt>
      <trkpt lat="43.7657" lon="4.87528">
        <ele>129.18</ele>
        <time>2016-09-25T09:34:13Z</time>
      </trkpt>
      <trkpt lat="43.7658" lon="4.87507">
        <ele>135.51</ele>
        <time>2016-09-25T09:34:24Z</time>
      </trkpt>
      <trkpt lat="43.7658" lon="4.87482">
        <ele>135.55</ele>
        <time>2016-09-25T09:34:35Z</time>
      </trkpt>
      <trkpt lat="43.7659" lon="4.87457">
        <ele>136.32</ele>
        <time>2016-09-25T09:34:46Z</time>
      </trkpt>
      <trkpt lat="43.7659" lon="4.87432">
        <ele>137.55</ele>
        <time>2016-09-25T09:34:57Z</time>
      </trkpt>
      <trkpt lat="43.766" lon="4.87406">
        <ele>138.59</ele>
        <time>2016-09-25T09:35:08Z</time>
      </trkpt>
      <trkpt lat="43.766" lon="4.8738">
        <ele>139.75</ele>
        <time>2016-09-25T09:35:17Z</time>
      </trkpt>
      <trkpt lat="43.7661" lon="4.87353">
        <ele>141.35</ele>
        <time>2016-09-25T09:35:25Z</time>
      </trkpt>
      <trkpt lat="43.7661" lon="4.87328">
        <ele>140.55</ele>
        <time>2016-09-25T09:35:30Z</time>
      </trkpt>
      <trkpt lat="43.7661" lon="4.87303">
        <ele>137.99</ele>
        <time>2016-09-25T09:35:33Z</time>
      </trkpt>
      <trkpt lat="43.7662" lon="4.87278">
        <ele>135.79</ele>
        <time>2016-09-25T09:35:36Z</time>
      </trkpt>
      <trkpt lat="43.7662" lon="4.87255">
        <ele>136.38</ele>
        <time>2016-09-25T09:35:39Z</time>
      </trkpt>
      <trkpt lat="43.7663" lon="4.87232">
        <ele>134.59</ele>
        <time>2016-09-25T09:35:43Z</time>
      </trkpt>
      <trkpt lat="43.7664" lon="4.87206">
        <ele>128.79</ele>
        <time>2016-09-25T09:35:58Z</time>
      </trkpt>
      <trkpt lat="43.7664" lon="4.8718">
        <ele>129.55</ele>
        <time>2016-09-25T09:36:09Z</time>
      </trkpt>
      <trkpt lat="43.7665" lon="4.87162">
        <ele>134.68</ele>
        <time>2016-09-25T09:36:23Z</time>
      </trkpt>
      <trkpt lat="43.7666" lon="4.87136">
        <ele>139.49</ele>
        <time>2016-09-25T09:36:35Z</time>
      </trkpt>
      <trkpt lat="43.7666" lon="4.8711">
        <ele>137.58</ele>
        <time>2016-09-25T09:36:47Z</time>
      </trkpt>
      <trkpt lat="43.7667" lon="4.87086">
        <ele>134.58</ele>
        <time>2016-09-25T09:36:59Z</time>
      </trkpt>
      <trkpt lat="43.7668" lon="4.87062">
        <ele>140.38</ele>
        <time>2016-09-25T09:37:06Z</time>
      </trkpt>
      <trkpt lat="43.7669" lon="4.87041">
        <ele>142.31</ele>
        <time>2016-09-25T09:37:11Z</time>
      </trkpt>
      <trkpt lat="43.767" lon="4.87012">
        <ele>139.63</ele>
        <time>2016-09-25T09:37:18Z</time>
      </trkpt>
      <trkpt lat="43.7669" lon="4.86988">
        <ele>139.58</ele>
        <time>2016-09-25T09:37:23Z</time>
      </trkpt>
      <trkpt lat="43.7668" lon="4.86966">
        <ele>140.35</ele>
        <time>2016-09-25T09:37:31Z</time>
      </trkpt>
      <trkpt lat="43.7669" lon="4.86947">
        <ele>136.96</ele>
        <time>2016-09-25T09:37:36Z</time>
      </trkpt>
      <trkpt lat="43.7671" lon="4.8694">
        <ele>137.59</ele>
        <time>2016-09-25T09:37:42Z</time>
      </trkpt>
      <trkpt lat="43.7673" lon="4.86925">
        <ele>135.59</ele>
        <time>2016-09-25T09:37:49Z</time>
      </trkpt>
      <trkpt lat="43.7674" lon="4.86909">
        <ele>134.59</ele>
        <time>2016-09-25T09:37:54Z</time>
      </trkpt>
      <trkpt lat="43.7675" lon="4.86885">
        <ele>132.12</ele>
        <time>2016-09-25T09:37:59Z</time>
      </trkpt>
      <trkpt lat="43.7676" lon="4.86859">
        <ele>132.51</ele>
        <time>2016-09-25T09:38:05Z</time>
      </trkpt>
      <trkpt lat="43.7676" lon="4.86833">
        <ele>130.96</ele>
        <time>2016-09-25T09:38:17Z</time>
      </trkpt>
      <trkpt lat="43.7677" lon="4.86808">
        <ele>132.38</ele>
        <time>2016-09-25T09:38:29Z</time>
      </trkpt>
      <trkpt lat="43.7679" lon="4.86799">
        <ele>134.58</ele>
        <time>2016-09-25T09:38:38Z</time>
      </trkpt>
      <trkpt lat="43.7681" lon="4.86789">
        <ele>136.35</ele>
        <time>2016-09-25T09:38:44Z</time>
      </trkpt>
      <trkpt lat="43.7682" lon="4.86767">
        <ele>136.55</ele>
        <time>2016-09-25T09:38:50Z</time>
      </trkpt>
      <trkpt lat="43.7683" lon="4.86755">
        <ele>135.71</ele>
        <time>2016-09-25T09:38:55Z</time>
      </trkpt>
      <trkpt lat="43.7685" lon="4.86762">
        <ele>136.35</ele>
        <time>2016-09-25T09:39:01Z</time>
      </trkpt>
      <trkpt lat="43.7687" lon="4.86775">
        <ele>135.52</ele>
        <time>2016-09-25T09:39:05Z</time>
      </trkpt>
      <trkpt lat="43.7689" lon="4.86778">
        <ele>136.55</ele>
        <time>2016-09-25T09:39:09Z</time>
      </trkpt>
      <trkpt lat="43.7691" lon="4.86792">
        <ele>135.76</ele>
        <time>2016-09-25T09:39:13Z</time>
      </trkpt>
      <trkpt lat="43.7693" lon="4.86785">
        <ele>132.39</ele>
        <time>2016-09-25T09:39:19Z</time>
      </trkpt>
      <trkpt lat="43.7694" lon="4.86765">
        <ele>134.55</ele>
        <time>2016-09-25T09:39:23Z</time>
      </trkpt>
      <trkpt lat="43.7694" lon="4.86737">
        <ele>132.95</ele>
        <time>2016-09-25T09:39:28Z</time>
      </trkpt>
      <trkpt lat="43.7693" lon="4.86712">
        <ele>129.6</ele>
        <time>2016-09-25T09:39:33Z</time>
      </trkpt>
      <trkpt lat="43.7693" lon="4.86687">
        <ele>127.6</ele>
        <time>2016-09-25T09:39:38Z</time>
      </trkpt>
      <trkpt lat="43.7692" lon="4.86661">
        <ele>125.36</ele>
        <time>2016-09-25T09:39:42Z</time>
      </trkpt>
      <trkpt lat="43.7693" lon="4.86635">
        <ele>124.75</ele>
        <time>2016-09-25T09:39:46Z</time>
      </trkpt>
      <trkpt lat="43.7693" lon="4.86608">
        <ele>125.34</ele>
        <time>2016-09-25T09:39:51Z</time>
      </trkpt>
      <trkpt lat="43.7693" lon="4.86582">
        <ele>125.56</ele>
        <time>2016-09-25T09:39:56Z</time>
      </trkpt>
      <trkpt lat="43.7693" lon="4.86552">
        <ele>125.74</ele>
        <time>2016-09-25T09:40:01Z</time>
      </trkpt>
      <trkpt lat="43.7693" lon="4.86526">
        <ele>125.58</ele>
        <time>2016-09-25T09:40:05Z</time>
      </trkpt>
      <trkpt lat="43.7692" lon="4.86504">
        <ele>122.76</ele>
        <time>2016-09-25T09:40:10Z</time>
      </trkpt>
      <trkpt lat="43.769" lon="4.86508">
        <ele>121.75</ele>
        <time>2016-09-25T09:40:14Z</time>
      </trkpt>
      <trkpt lat="43.7689" lon="4.86509">
        <ele>122.39</ele>
        <time>2016-09-25T09:40:18Z</time>
      </trkpt>
      <trkpt lat="43.7687" lon="4.86487">
        <ele>123.55</ele>
        <time>2016-09-25T09:40:23Z</time>
      </trkpt>
      <trkpt lat="43.7686" lon="4.8646">
        <ele>122.75</ele>
        <time>2016-09-25T09:40:26Z</time>
      </trkpt>
      <trkpt lat="43.7687" lon="4.86436">
        <ele>121.56</ele>
        <time>2016-09-25T09:40:29Z</time>
      </trkpt>
      <trkpt lat="43.7688" lon="4.86415">
        <ele>123.57</ele>
        <time>2016-09-25T09:40:33Z</time>
      </trkpt>
      <trkpt lat="43.7689" lon="4.8639">
        <ele>123.39</ele>
        <time>2016-09-25T09:40:37Z</time>
      </trkpt>
      <trkpt lat="43.769" lon="4.86363">
        <ele>123.39</ele>
        <time>2016-09-25T09:40:41Z</time>
      </trkpt>
      <trkpt lat="43.7691" lon="4.86337">
        <ele>121.37</ele>
        <time>2016-09-25T09:40:45Z</time>
      </trkpt>
      <trkpt lat="43.7691" lon="4.86301">
        <ele>120.35</ele>
        <time>2016-09-25T09:40:49Z</time>
      </trkpt>
      <trkpt lat="43.769" lon="4.8628">
        <ele>116.79</ele>
        <time>2016-09-25T09:40:53Z</time>
      </trkpt>
      <trkpt lat="43.769" lon="4.86255">
        <ele>114.31</ele>
        <time>2016-09-25T09:40:56Z</time>
      </trkpt>
      <trkpt lat="43.7692" lon="4.8626">
        <ele>113.83</ele>
        <time>2016-09-25T09:41:07Z</time>
      </trkpt>
      <trkpt lat="43.7692" lon="4.86232">
        <ele>114.56</ele>
        <time>2016-09-25T09:41:27Z</time>
      </trkpt>
      <trkpt lat="43.7693" lon="4.86208">
        <ele>115.54</ele>
        <time>2016-09-25T09:41:36Z</time>
      </trkpt>
      <trkpt lat="43.7693" lon="4.86185">
        <ele>119.27</ele>
        <time>2016-09-25T09:41:52Z</time>
      </trkpt>
      <trkpt lat="43.7695" lon="4.86167">
        <ele>125.36</ele>
        <time>2016-09-25T09:42:06Z</time>
      </trkpt>
      <trkpt lat="43.7696" lon="4.86148">
        <ele>128.72</ele>
        <time>2016-09-25T09:42:18Z</time>
      </trkpt>
      <trkpt lat="43.7697" lon="4.86122">
        <ele>127.56</ele>
        <time>2016-09-25T09:42:29Z</time>
      </trkpt>
      <trkpt lat="43.7697" lon="4.86098">
        <ele>129.16</ele>
        <time>2016-09-25T09:42:38Z</time>
      </trkpt>
      <trkpt lat="43.7698" lon="4.86069">
        <ele>129.55</ele>
        <time>2016-09-25T09:42:49Z</time>
      </trkpt>
      <trkpt lat="43.7698" lon="4.86044">
        <ele>130.35</ele>
        <time>2016-09-25T09:42:57Z</time>
      </trkpt>
      <trkpt lat="43.7699" lon="4.8602">
        <ele>130.72</ele>
        <time>2016-09-25T09:43:03Z</time>
      </trkpt>
      <trkpt lat="43.77" lon="4.85996">
        <ele>129.51</ele>
        <time>2016-09-25T09:43:09Z</time>
      </trkpt>
      <trkpt lat="43.77" lon="4.85967">
        <ele>128.75</ele>
        <time>2016-09-25T09:43:16Z</time>
      </trkpt>
      <trkpt lat="43.7702" lon="4.85943">
        <ele>127.55</ele>
        <time>2016-09-25T09:43:22Z</time>
      </trkpt>
      <trkpt lat="43.7702" lon="4.85917">
        <ele>129.55</ele>
        <time>2016-09-25T09:43:28Z</time>
      </trkpt>
      <trkpt lat="43.7704" lon="4.85918">
        <ele>132.34</ele>
        <time>2016-09-25T09:43:34Z</time>
      </trkpt>
      <trkpt lat="43.7706" lon="4.85931">
        <ele>131.59</ele>
        <time>2016-09-25T09:43:37Z</time>
      </trkpt>
      <trkpt lat="43.7708" lon="4.8594">
        <ele>130.72</ele>
        <time>2016-09-25T09:43:40Z</time>
      </trkpt>
      <trkpt lat="43.7709" lon="4.85953">
        <ele>129.75</ele>
        <time>2016-09-25T09:43:43Z</time>
      </trkpt>
      <trkpt lat="43.7711" lon="4.85965">
        <ele>127.76</ele>
        <time>2016-09-25T09:43:46Z</time>
      </trkpt>
      <trkpt lat="43.7713" lon="4.85984">
        <ele>126.59</ele>
        <time>2016-09-25T09:43:49Z</time>
      </trkpt>
      <trkpt lat="43.7714" lon="4.85997">
        <ele>126.74</ele>
        <time>2016-09-25T09:43:52Z</time>
      </trkpt>
      <trkpt lat="43.7715" lon="4.86021">
        <ele>124.79</ele>
        <time>2016-09-25T09:43:55Z</time>
      </trkpt>
      <trkpt lat="43.7716" lon="4.86041">
        <ele>123.56</ele>
        <time>2016-09-25T09:43:58Z</time>
      </trkpt>
      <trkpt lat="43.7718" lon="4.86067">
        <ele>125.54</ele>
        <time>2016-09-25T09:44:02Z</time>
      </trkpt>
      <trkpt lat="43.7719" lon="4.86081">
        <ele>123.57</ele>
        <time>2016-09-25T09:44:05Z</time>
      </trkpt>
      <trkpt lat="43.7722" lon="4.86089">
        <ele>121.76</ele>
        <time>2016-09-25T09:44:09Z</time>
      </trkpt>
      <trkpt lat="43.7724" lon="4.86091">
        <ele>120.56</ele>
        <time>2016-09-25T09:44:12Z</time>
      </trkpt>
      <trkpt lat="43.7726" lon="4.86102">
        <ele>119.56</ele>
        <time>2016-09-25T09:44:15Z</time>
      </trkpt>
      <trkpt lat="43.7728" lon="4.86111">
        <ele>117.6</ele>
        <time>2016-09-25T09:44:19Z</time>
      </trkpt>
      <trkpt lat="43.7729" lon="4.86129">
        <ele>115.82</ele>
        <time>2016-09-25T09:44:24Z</time>
      </trkpt>
      <trkpt lat="43.7729" lon="4.86154">
        <ele>112.4</ele>
        <time>2016-09-25T09:44:29Z</time>
      </trkpt>
      <trkpt lat="43.7728" lon="4.8618">
        <ele>110.6</ele>
        <time>2016-09-25T09:44:34Z</time>
      </trkpt>
      <trkpt lat="43.7727" lon="4.86204">
        <ele>105.83</ele>
        <time>2016-09-25T09:44:40Z</time>
      </trkpt>
      <trkpt lat="43.7727" lon="4.8623">
        <ele>114.51</ele>
        <time>2016-09-25T09:44:45Z</time>
      </trkpt>
      <trkpt lat="43.7726" lon="4.86256">
        <ele>107.05</ele>
        <time>2016-09-25T09:44:49Z</time>
      </trkpt>
      <trkpt lat="43.7726" lon="4.8628">
        <ele>104.75</ele>
        <time>2016-09-25T09:44:53Z</time>
      </trkpt>
      <trkpt lat="43.7725" lon="4.86304">
        <ele>103.58</ele>
        <time>2016-09-25T09:44:57Z</time>
      </trkpt>
      <trkpt lat="43.7724" lon="4.86328">
        <ele>102.55</ele>
        <time>2016-09-25T09:45:01Z</time>
      </trkpt>
      <trkpt lat="43.7723" lon="4.86354">
        <ele>100.73</ele>
        <time>2016-09-25T09:45:05Z</time>
      </trkpt>
      <trkpt lat="43.7722" lon="4.8638">
        <ele>98.78</ele>
        <time>2016-09-25T09:45:10Z</time>
      </trkpt>
      <trkpt lat="43.7721" lon="4.86401">
        <ele>98.55</ele>
        <time>2016-09-25T09:45:13Z</time>
      </trkpt>
      <trkpt lat="43.772" lon="4.86426">
        <ele>98.31</ele>
        <time>2016-09-25T09:45:19Z</time>
      </trkpt>
      <trkpt lat="43.772" lon="4.86451">
        <ele>99.38</ele>
        <time>2016-09-25T09:45:26Z</time>
      </trkpt>
      <trkpt lat="43.7722" lon="4.86471">
        <ele>105.53</ele>
        <time>2016-09-25T09:45:32Z</time>
      </trkpt>
      <trkpt lat="43.7724" lon="4.86481">
        <ele>109.66</ele>
        <time>2016-09-25T09:45:37Z</time>
      </trkpt>
      <trkpt lat="43.7726" lon="4.86489">
        <ele>110.7</ele>
        <time>2016-09-25T09:45:42Z</time>
      </trkpt>
      <trkpt lat="43.7727" lon="4.86499">
        <ele>110.59</ele>
        <time>2016-09-25T09:45:48Z</time>
      </trkpt>
      <trkpt lat="43.7729" lon="4.86504">
        <ele>111.71</ele>
        <time>2016-09-25T09:45:55Z</time>
      </trkpt>
      <trkpt lat="43.7731" lon="4.86506">
        <ele>110.59</ele>
        <time>2016-09-25T09:46:00Z</time>
      </trkpt>
      <trkpt lat="43.7733" lon="4.86513">
        <ele>111.55</ele>
        <time>2016-09-25T09:46:04Z</time>
      </trkpt>
      <trkpt lat="43.7735" lon="4.86508">
        <ele>110.55</ele>
        <time>2016-09-25T09:46:08Z</time>
      </trkpt>
      <trkpt lat="43.7737" lon="4.86502">
        <ele>110.55</ele>
        <time>2016-09-25T09:46:12Z</time>
      </trkpt>
      <trkpt lat="43.7739" lon="4.86496">
        <ele>110.55</ele>
        <time>2016-09-25T09:46:15Z</time>
      </trkpt>
      <trkpt lat="43.7741" lon="4.8649">
        <ele>108.95</ele>
        <time>2016-09-25T09:46:19Z</time>
      </trkpt>
      <trkpt lat="43.7743" lon="4.86487">
        <ele>107.59</ele>
        <time>2016-09-25T09:46:22Z</time>
      </trkpt>
      <trkpt lat="43.7745" lon="4.86481">
        <ele>108.35</ele>
        <time>2016-09-25T09:46:25Z</time>
      </trkpt>
      <trkpt lat="43.7747" lon="4.8647">
        <ele>106.46</ele>
        <time>2016-09-25T09:46:27Z</time>
      </trkpt>
      <trkpt lat="43.7749" lon="4.86474">
        <ele>106.39</ele>
        <time>2016-09-25T09:46:29Z</time>
      </trkpt>
      <trkpt lat="43.7751" lon="4.86457">
        <ele>100.61</ele>
        <time>2016-09-25T09:46:33Z</time>
      </trkpt>
      <trkpt lat="43.7753" lon="4.86434">
        <ele>98.79</ele>
        <time>2016-09-25T09:46:36Z</time>
      </trkpt>
      <trkpt lat="43.7754" lon="4.86403">
        <ele>98.56</ele>
        <time>2016-09-25T09:46:39Z</time>
      </trkpt>
      <trkpt lat="43.7754" lon="4.86375">
        <ele>98.55</ele>
        <time>2016-09-25T09:46:41Z</time>
      </trkpt>
      <trkpt lat="43.7755" lon="4.86348">
        <ele>98.55</ele>
        <time>2016-09-25T09:46:43Z</time>
      </trkpt>
      <trkpt lat="43.7756" lon="4.86327">
        <ele>98.39</ele>
        <time>2016-09-25T09:46:46Z</time>
      </trkpt>
      <trkpt lat="43.7756" lon="4.86303">
        <ele>98.54</ele>
        <time>2016-09-25T09:46:48Z</time>
      </trkpt>
      <trkpt lat="43.7759" lon="4.86307">
        <ele>93.65</ele>
        <time>2016-09-25T09:46:51Z</time>
      </trkpt>
      <trkpt lat="43.776" lon="4.86286">
        <ele>100.27</ele>
        <time>2016-09-25T09:46:55Z</time>
      </trkpt>
      <trkpt lat="43.776" lon="4.86258">
        <ele>102.38</ele>
        <time>2016-09-25T09:47:00Z</time>
      </trkpt>
      <trkpt lat="43.7761" lon="4.8623">
        <ele>102.39</ele>
        <time>2016-09-25T09:47:05Z</time>
      </trkpt>
      <trkpt lat="43.7761" lon="4.86205">
        <ele>104.15</ele>
        <time>2016-09-25T09:47:10Z</time>
      </trkpt>
      <trkpt lat="43.7762" lon="4.86178">
        <ele>101.53</ele>
        <time>2016-09-25T09:47:15Z</time>
      </trkpt>
      <trkpt lat="43.7763" lon="4.86153">
        <ele>100.71</ele>
        <time>2016-09-25T09:47:20Z</time>
      </trkpt>
      <trkpt lat="43.7764" lon="4.86125">
        <ele>99.72</ele>
        <time>2016-09-25T09:47:25Z</time>
      </trkpt>
      <trkpt lat="43.7765" lon="4.86101">
        <ele>96.99</ele>
        <time>2016-09-25T09:47:29Z</time>
      </trkpt>
      <trkpt lat="43.7766" lon="4.86072">
        <ele>94.79</ele>
        <time>2016-09-25T09:47:33Z</time>
      </trkpt>
      <trkpt lat="43.7767" lon="4.86057">
        <ele>93.56</ele>
        <time>2016-09-25T09:47:36Z</time>
      </trkpt>
      <trkpt lat="43.7768" lon="4.86032">
        <ele>91.56</ele>
        <time>2016-09-25T09:47:45Z</time>
      </trkpt>
      <trkpt lat="43.7768" lon="4.86006">
        <ele>93.36</ele>
        <time>2016-09-25T09:47:51Z</time>
      </trkpt>
      <trkpt lat="43.7768" lon="4.85978">
        <ele>89.63</ele>
        <time>2016-09-25T09:47:57Z</time>
      </trkpt>
      <trkpt lat="43.7767" lon="4.85949">
        <ele>87.55</ele>
        <time>2016-09-25T09:48:05Z</time>
      </trkpt>
      <trkpt lat="43.7767" lon="4.85923">
        <ele>87.74</ele>
        <time>2016-09-25T09:48:13Z</time>
      </trkpt>
      <trkpt lat="43.7767" lon="4.85898">
        <ele>91.08</ele>
        <time>2016-09-25T09:48:20Z</time>
      </trkpt>
      <trkpt lat="43.7768" lon="4.85871">
        <ele>93.3</ele>
        <time>2016-09-25T09:48:26Z</time>
      </trkpt>
      <trkpt lat="43.7768" lon="4.85849">
        <ele>92.71</ele>
        <time>2016-09-25T09:48:31Z</time>
      </trkpt>
      <trkpt lat="43.7769" lon="4.85822">
        <ele>93.38</ele>
        <time>2016-09-25T09:48:36Z</time>
      </trkpt>
      <trkpt lat="43.7769" lon="4.85795">
        <ele>93.77</ele>
        <time>2016-09-25T09:48:40Z</time>
      </trkpt>
      <trkpt lat="43.7768" lon="4.85765">
        <ele>95.52</ele>
        <time>2016-09-25T09:48:45Z</time>
      </trkpt>
      <trkpt lat="43.7769" lon="4.85739">
        <ele>94.52</ele>
        <time>2016-09-25T09:48:49Z</time>
      </trkpt>
      <trkpt lat="43.7769" lon="4.85714">
        <ele>91.79</ele>
        <time>2016-09-25T09:48:53Z</time>
      </trkpt>
      <trkpt lat="43.7769" lon="4.85683">
        <ele>92.35</ele>
        <time>2016-09-25T09:48:57Z</time>
      </trkpt>
      <trkpt lat="43.777" lon="4.85658">
        <ele>93.55</ele>
        <time>2016-09-25T09:49:02Z</time>
      </trkpt>
      <trkpt lat="43.7769" lon="4.85633">
        <ele>92.59</ele>
        <time>2016-09-25T09:49:10Z</time>
      </trkpt>
      <trkpt lat="43.7769" lon="4.85604">
        <ele>93.54</ele>
        <time>2016-09-25T09:49:16Z</time>
      </trkpt>
      <trkpt lat="43.7769" lon="4.85576">
        <ele>89.96</ele>
        <time>2016-09-25T09:49:22Z</time>
      </trkpt>
      <trkpt lat="43.777" lon="4.85554">
        <ele>87.83</ele>
        <time>2016-09-25T09:49:28Z</time>
      </trkpt>
      <trkpt lat="43.7771" lon="4.85531">
        <ele>87.56</ele>
        <time>2016-09-25T09:49:34Z</time>
      </trkpt>
      <trkpt lat="43.7771" lon="4.85507">
        <ele>85.03</ele>
        <time>2016-09-25T09:49:39Z</time>
      </trkpt>
      <trkpt lat="43.7772" lon="4.85485">
        <ele>85.39</ele>
        <time>2016-09-25T09:49:44Z</time>
      </trkpt>
      <trkpt lat="43.7773" lon="4.85456">
        <ele>85.52</ele>
        <time>2016-09-25T09:49:49Z</time>
      </trkpt>
      <trkpt lat="43.7773" lon="4.85424">
        <ele>88.95</ele>
        <time>2016-09-25T09:49:54Z</time>
      </trkpt>
      <trkpt lat="43.7774" lon="4.854">
        <ele>89.63</ele>
        <time>2016-09-25T09:49:59Z</time>
      </trkpt>
      <trkpt lat="43.7774" lon="4.85371">
        <ele>93.3</ele>
        <time>2016-09-25T09:50:04Z</time>
      </trkpt>
      <trkpt lat="43.7774" lon="4.85341">
        <ele>92.72</ele>
        <time>2016-09-25T09:50:10Z</time>
      </trkpt>
      <trkpt lat="43.7774" lon="4.85315">
        <ele>93.55</ele>
        <time>2016-09-25T09:50:18Z</time>
      </trkpt>
      <trkpt lat="43.7773" lon="4.8529">
        <ele>98.49</ele>
        <time>2016-09-25T09:50:25Z</time>
      </trkpt>
      <trkpt lat="43.7773" lon="4.85265">
        <ele>99.55</ele>
        <time>2016-09-25T09:50:32Z</time>
      </trkpt>
      <trkpt lat="43.7774" lon="4.85241">
        <ele>101.59</ele>
        <time>2016-09-25T09:50:40Z</time>
      </trkpt>
      <trkpt lat="43.7774" lon="4.85217">
        <ele>98.52</ele>
        <time>2016-09-25T09:50:48Z</time>
      </trkpt>
      <trkpt lat="43.7775" lon="4.85191">
        <ele>98.71</ele>
        <time>2016-09-25T09:50:54Z</time>
      </trkpt>
      <trkpt lat="43.7775" lon="4.85164">
        <ele>98.54</ele>
        <time>2016-09-25T09:51:01Z</time>
      </trkpt>
      <trkpt lat="43.7777" lon="4.85149">
        <ele>102.34</ele>
        <time>2016-09-25T09:51:07Z</time>
      </trkpt>
      <trkpt lat="43.7779" lon="4.85138">
        <ele>104.55</ele>
        <time>2016-09-25T09:51:14Z</time>
      </trkpt>
      <trkpt lat="43.7781" lon="4.85129">
        <ele>104.79</ele>
        <time>2016-09-25T09:51:19Z</time>
      </trkpt>
      <trkpt lat="43.7782" lon="4.85129">
        <ele>107.28</ele>
        <time>2016-09-25T09:51:24Z</time>
      </trkpt>
      <trkpt lat="43.7784" lon="4.85126">
        <ele>106.75</ele>
        <time>2016-09-25T09:51:32Z</time>
      </trkpt>
      <trkpt lat="43.7786" lon="4.85135">
        <ele>105.55</ele>
        <time>2016-09-25T09:51:37Z</time>
      </trkpt>
      <trkpt lat="43.7788" lon="4.8514">
        <ele>106.73</ele>
        <time>2016-09-25T09:51:44Z</time>
      </trkpt>
      <trkpt lat="43.779" lon="4.85135">
        <ele>109.55</ele>
        <time>2016-09-25T09:51:52Z</time>
      </trkpt>
      <trkpt lat="43.7792" lon="4.85119">
        <ele>109.82</ele>
        <time>2016-09-25T09:51:59Z</time>
      </trkpt>
      <trkpt lat="43.7793" lon="4.85096">
        <ele>108.55</ele>
        <time>2016-09-25T09:52:08Z</time>
      </trkpt>
      <trkpt lat="43.7792" lon="4.85075">
        <ele>108.56</ele>
        <time>2016-09-25T09:52:20Z</time>
      </trkpt>
      <trkpt lat="43.7791" lon="4.85054">
        <ele>109.54</ele>
        <time>2016-09-25T09:52:26Z</time>
      </trkpt>
      <trkpt lat="43.7789" lon="4.85034">
        <ele>109.35</ele>
        <time>2016-09-25T09:52:32Z</time>
      </trkpt>
      <trkpt lat="43.7789" lon="4.85011">
        <ele>110.55</ele>
        <time>2016-09-25T09:52:37Z</time>
      </trkpt>
      <trkpt lat="43.7787" lon="4.84992">
        <ele>112.55</ele>
        <time>2016-09-25T09:52:41Z</time>
      </trkpt>
      <trkpt lat="43.7787" lon="4.84969">
        <ele>112.39</ele>
        <time>2016-09-25T09:52:46Z</time>
      </trkpt>
      <trkpt lat="43.7786" lon="4.84946">
        <ele>111.74</ele>
        <time>2016-09-25T09:52:51Z</time>
      </trkpt>
      <trkpt lat="43.7784" lon="4.84921">
        <ele>108.63</ele>
        <time>2016-09-25T09:52:56Z</time>
      </trkpt>
      <trkpt lat="43.7783" lon="4.84898">
        <ele>110.32</ele>
        <time>2016-09-25T09:53:01Z</time>
      </trkpt>
      <trkpt lat="43.7782" lon="4.84877">
        <ele>111.57</ele>
        <time>2016-09-25T09:53:05Z</time>
      </trkpt>
      <trkpt lat="43.7781" lon="4.84852">
        <ele>111.59</ele>
        <time>2016-09-25T09:53:09Z</time>
      </trkpt>
      <trkpt lat="43.7781" lon="4.84824">
        <ele>108.29</ele>
        <time>2016-09-25T09:53:12Z</time>
      </trkpt>
      <trkpt lat="43.7779" lon="4.84795">
        <ele>107.75</ele>
        <time>2016-09-25T09:53:15Z</time>
      </trkpt>
      <trkpt lat="43.7778" lon="4.84775">
        <ele>107.71</ele>
        <time>2016-09-25T09:53:18Z</time>
      </trkpt>
      <trkpt lat="43.7778" lon="4.8475">
        <ele>105.52</ele>
        <time>2016-09-25T09:53:25Z</time>
      </trkpt>
      <trkpt lat="43.7778" lon="4.84724">
        <ele>98.19</ele>
        <time>2016-09-25T09:53:32Z</time>
      </trkpt>
      <trkpt lat="43.7777" lon="4.84703">
        <ele>98.51</ele>
        <time>2016-09-25T09:53:38Z</time>
      </trkpt>
      <trkpt lat="43.7775" lon="4.84678">
        <ele>98.36</ele>
        <time>2016-09-25T09:53:43Z</time>
      </trkpt>
      <trkpt lat="43.7774" lon="4.84654">
        <ele>102.28</ele>
        <time>2016-09-25T09:53:49Z</time>
      </trkpt>
      <trkpt lat="43.7773" lon="4.84635">
        <ele>101.39</ele>
        <time>2016-09-25T09:53:54Z</time>
      </trkpt>
      <trkpt lat="43.7772" lon="4.84614">
        <ele>98.57</ele>
        <time>2016-09-25T09:54:00Z</time>
      </trkpt>
      <trkpt lat="43.7771" lon="4.84592">
        <ele>97.51</ele>
        <time>2016-09-25T09:54:07Z</time>
      </trkpt>
      <trkpt lat="43.7771" lon="4.84566">
        <ele>98.55</ele>
        <time>2016-09-25T09:54:13Z</time>
      </trkpt>
      <trkpt lat="43.7771" lon="4.84538">
        <ele>101.75</ele>
        <time>2016-09-25T09:54:20Z</time>
      </trkpt>
      <trkpt lat="43.777" lon="4.84513">
        <ele>100.56</ele>
        <time>2016-09-25T09:54:25Z</time>
      </trkpt>
      <trkpt lat="43.7768" lon="4.84507">
        <ele>101.52</ele>
        <time>2016-09-25T09:54:34Z</time>
      </trkpt>
      <trkpt lat="43.7767" lon="4.84502">
        <ele>102.55</ele>
        <time>2016-09-25T09:54:39Z</time>
      </trkpt>
      <trkpt lat="43.7766" lon="4.84478">
        <ele>101.91</ele>
        <time>2016-09-25T09:54:46Z</time>
      </trkpt>
      <trkpt lat="43.7766" lon="4.84449">
        <ele>104.3</ele>
        <time>2016-09-25T09:54:51Z</time>
      </trkpt>
      <trkpt lat="43.7766" lon="4.84417">
        <ele>106.5</ele>
        <time>2016-09-25T09:54:56Z</time>
      </trkpt>
      <trkpt lat="43.7765" lon="4.84398">
        <ele>107.59</ele>
        <time>2016-09-25T09:55:01Z</time>
      </trkpt>
      <trkpt lat="43.7763" lon="4.8438">
        <ele>105.59</ele>
        <time>2016-09-25T09:55:06Z</time>
      </trkpt>
      <trkpt lat="43.7764" lon="4.84359">
        <ele>106.55</ele>
        <time>2016-09-25T09:55:13Z</time>
      </trkpt>
      <trkpt lat="43.7765" lon="4.84333">
        <ele>106.52</ele>
        <time>2016-09-25T09:55:20Z</time>
      </trkpt>
      <trkpt lat="43.7765" lon="4.8431">
        <ele>99.86</ele>
        <time>2016-09-25T09:55:24Z</time>
      </trkpt>
      <trkpt lat="43.7767" lon="4.8429">
        <ele>99.59</ele>
        <time>2016-09-25T09:55:29Z</time>
      </trkpt>
      <trkpt lat="43.7767" lon="4.84265">
        <ele>101.5</ele>
        <time>2016-09-25T09:55:33Z</time>
      </trkpt>
      <trkpt lat="43.7768" lon="4.84237">
        <ele>99.52</ele>
        <time>2016-09-25T09:55:39Z</time>
      </trkpt>
      <trkpt lat="43.7768" lon="4.84211">
        <ele>100.54</ele>
        <time>2016-09-25T09:55:44Z</time>
      </trkpt>
      <trkpt lat="43.7767" lon="4.84186">
        <ele>102.31</ele>
        <time>2016-09-25T09:55:49Z</time>
      </trkpt>
      <trkpt lat="43.7767" lon="4.84162">
        <ele>103.54</ele>
        <time>2016-09-25T09:55:54Z</time>
      </trkpt>
      <trkpt lat="43.7767" lon="4.84135">
        <ele>104.94</ele>
        <time>2016-09-25T09:55:59Z</time>
      </trkpt>
      <trkpt lat="43.7766" lon="4.84107">
        <ele>107.46</ele>
        <time>2016-09-25T09:56:04Z</time>
      </trkpt>
      <trkpt lat="43.7766" lon="4.84082">
        <ele>107.38</ele>
        <time>2016-09-25T09:56:09Z</time>
      </trkpt>
      <trkpt lat="43.7766" lon="4.84051">
        <ele>107.54</ele>
        <time>2016-09-25T09:56:14Z</time>
      </trkpt>
      <trkpt lat="43.7766" lon="4.84025">
        <ele>107.74</ele>
        <time>2016-09-25T09:56:18Z</time>
      </trkpt>
      <trkpt lat="43.7767" lon="4.84">
        <ele>106.39</ele>
        <time>2016-09-25T09:56:23Z</time>
      </trkpt>
      <trkpt lat="43.7768" lon="4.83975">
        <ele>106.75</ele>
        <time>2016-09-25T09:56:29Z</time>
      </trkpt>
      <trkpt lat="43.7768" lon="4.83947">
        <ele>105.59</ele>
        <time>2016-09-25T09:56:33Z</time>
      </trkpt>
      <trkpt lat="43.7768" lon="4.83917">
        <ele>103.76</ele>
        <time>2016-09-25T09:56:37Z</time>
      </trkpt>
      <trkpt lat="43.7768" lon="4.83892">
        <ele>103.42</ele>
        <time>2016-09-25T09:56:40Z</time>
      </trkpt>
      <trkpt lat="43.7768" lon="4.83864">
        <ele>103.35</ele>
        <time>2016-09-25T09:56:45Z</time>
      </trkpt>
      <trkpt lat="43.7768" lon="4.8384">
        <ele>103.55</ele>
        <time>2016-09-25T09:56:49Z</time>
      </trkpt>
      <trkpt lat="43.7768" lon="4.83815">
        <ele>102.59</ele>
        <time>2016-09-25T09:56:53Z</time>
      </trkpt>
      <trkpt lat="43.7768" lon="4.83787">
        <ele>105.3</ele>
        <time>2016-09-25T09:56:57Z</time>
      </trkpt>
      <trkpt lat="43.7768" lon="4.83762">
        <ele>104.74</ele>
        <time>2016-09-25T09:57:01Z</time>
      </trkpt>
      <trkpt lat="43.7767" lon="4.83736">
        <ele>106.38</ele>
        <time>2016-09-25T09:57:06Z</time>
      </trkpt>
      <trkpt lat="43.7766" lon="4.83708">
        <ele>103.54</ele>
        <time>2016-09-25T09:57:10Z</time>
      </trkpt>
      <trkpt lat="43.7766" lon="4.83684">
        <ele>101.75</ele>
        <time>2016-09-25T09:57:14Z</time>
      </trkpt>
      <trkpt lat="43.7765" lon="4.83658">
        <ele>101.19</ele>
        <time>2016-09-25T09:57:18Z</time>
      </trkpt>
      <trkpt lat="43.7765" lon="4.83631">
        <ele>97.41</ele>
        <time>2016-09-25T09:57:22Z</time>
      </trkpt>
      <trkpt lat="43.7764" lon="4.83605">
        <ele>98.36</ele>
        <time>2016-09-25T09:57:26Z</time>
      </trkpt>
      <trkpt lat="43.7764" lon="4.8358">
        <ele>104.07</ele>
        <time>2016-09-25T09:57:30Z</time>
      </trkpt>
      <trkpt lat="43.7763" lon="4.83556">
        <ele>104.31</ele>
        <time>2016-09-25T09:57:34Z</time>
      </trkpt>
      <trkpt lat="43.7763" lon="4.83527">
        <ele>103.59</ele>
        <time>2016-09-25T09:57:39Z</time>
      </trkpt>
      <trkpt lat="43.7763" lon="4.83497">
        <ele>106.28</ele>
        <time>2016-09-25T09:57:44Z</time>
      </trkpt>
      <trkpt lat="43.7763" lon="4.8347">
        <ele>104.5</ele>
        <time>2016-09-25T09:57:50Z</time>
      </trkpt>
      <trkpt lat="43.7763" lon="4.83439">
        <ele>105.7</ele>
        <time>2016-09-25T09:57:57Z</time>
      </trkpt>
      <trkpt lat="43.7762" lon="4.83413">
        <ele>106.51</ele>
        <time>2016-09-25T09:58:02Z</time>
      </trkpt>
      <trkpt lat="43.7763" lon="4.83386">
        <ele>107.35</ele>
        <time>2016-09-25T09:58:08Z</time>
      </trkpt>
      <trkpt lat="43.7763" lon="4.83358">
        <ele>104.43</ele>
        <time>2016-09-25T09:58:14Z</time>
      </trkpt>
      <trkpt lat="43.7763" lon="4.83332">
        <ele>103.55</ele>
        <time>2016-09-25T09:58:19Z</time>
      </trkpt>
      <trkpt lat="43.7763" lon="4.83307">
        <ele>103.39</ele>
        <time>2016-09-25T09:58:26Z</time>
      </trkpt>
      <trkpt lat="43.7765" lon="4.83314">
        <ele>102.39</ele>
        <time>2016-09-25T09:58:39Z</time>
      </trkpt>
    </trkseg>
  </trk>
</gpx>